PWSweather.com
Personal Weather Stations
Station Observations
HVALPSUND
Hvalpsund, FarsoeDK 9640

HvalpsundFarsoeDK 9640

Lat: 56.705311, Lon: 9.203638

Elevation: 5

Station Type: Vantage Pro2

http://hvalpsundvejr.dk

Latest ConditionsUpdated 11:58:00 AM GMT+01:01 Wednesday, Nov 21, 2018
Currently Today's Max Today's Min Today's Average
Temperature 40.3°F4.6°C 41.2°F5.1°C 38.2°F3.4°C 39.5°F4.2°C
Dew Point 35.2°F1.8°C 36.0°F2.2°C 33.8°F1.0°C 35.1°F1.7°C
Winds 12.3 mph E19.8 kmh E 19.4 mph -31.2 kmh - - 11.7 mph 18.8 kmh
Wind Gusts 21.0 mph33.8 kmh 29.0 mph46.7 kmh - -
Humidity 82% 87% 80% 84%
Pressure 30.36 in1028.1 mb 30.36 in1028.1 mb 30.26 in1024.7 mb -
Hour Temp Dew Point Humidity Winds Wind Gusts Pressure Precip Precip Rate Daily Precip Total
11:58 AM 40.3°F4.6°C 35.2°F1.8°C 82% 12.3 mph E19.8 kmh E 21.0 mph33.8 kmh 30.36 in1028.1 mb 0.00 in0.0 mm 0.00 in0.0 mm 0.00 in0.0 mm
11:57 AM 40.3°F4.6°C 35.2°F1.8°C 82% 11.1 mph E17.9 kmh E 18.0 mph29.0 kmh 30.36 in1028.1 mb 0.00 in0.0 mm 0.00 in0.0 mm 0.00 in0.0 mm
11:56 AM 40.3°F4.6°C 35.6°F2.0°C 83% 13.3 mph E21.4 kmh E 18.0 mph29.0 kmh 30.36 in1028.1 mb 0.00 in0.0 mm 0.00 in0.0 mm 0.00 in0.0 mm
11:55 AM 40.3°F4.6°C 35.6°F2.0°C 83% 10.3 mph E16.6 kmh E 15.0 mph24.1 kmh 30.36 in1028.1 mb 0.00 in0.0 mm 0.00 in0.0 mm 0.00 in0.0 mm
11:54 AM 40.4°F4.7°C 35.7°F2.1°C 83% 10.1 mph E16.3 kmh E 15.0 mph24.1 kmh 30.36 in1028.1 mb 0.00 in0.0 mm 0.00 in0.0 mm 0.00 in0.0 mm
11:53 AM 40.3°F4.6°C 35.6°F2.0°C 83% 9.8 mph E15.8 kmh E 12.0 mph19.3 kmh 30.36 in1028.1 mb 0.00 in0.0 mm 0.00 in0.0 mm 0.00 in0.0 mm
11:52 AM 40.4°F4.7°C 35.7°F2.1°C 83% 8.4 mph E13.5 kmh E 12.0 mph19.3 kmh 30.36 in1028.1 mb 0.00 in0.0 mm 0.00 in0.0 mm 0.00 in0.0 mm
11:51 AM 40.4°F4.7°C 35.7°F2.1°C 83% 9.5 mph E15.3 kmh E 15.0 mph24.1 kmh 30.36 in1028.1 mb 0.00 in0.0 mm 0.00 in0.0 mm 0.00 in0.0 mm
11:50 AM 40.4°F4.7°C 35.3°F1.8°C 82% 10.9 mph E17.5 kmh E 15.0 mph24.1 kmh 30.36 in1028.1 mb 0.00 in0.0 mm 0.00 in0.0 mm 0.00 in0.0 mm
11:49 AM 40.4°F4.7°C 35.3°F1.8°C 82% 10.8 mph E17.4 kmh E 15.0 mph24.1 kmh 30.36 in1028.1 mb 0.00 in0.0 mm 0.00 in0.0 mm 0.00 in0.0 mm
11:48 AM 40.5°F4.7°C 35.4°F1.9°C 82% 8.6 mph E13.8 kmh E 11.0 mph17.7 kmh 30.36 in1028.1 mb 0.00 in0.0 mm 0.00 in0.0 mm 0.00 in0.0 mm
11:47 AM 40.5°F4.7°C 35.4°F1.9°C 82% 8.6 mph E13.8 kmh E 12.0 mph19.3 kmh 30.36 in1028.1 mb 0.00 in0.0 mm 0.00 in0.0 mm 0.00 in0.0 mm
11:46 AM 40.4°F4.7°C 35.3°F1.8°C 82% 9.9 mph E15.9 kmh E 16.0 mph25.7 kmh 30.36 in1028.1 mb 0.00 in0.0 mm 0.00 in0.0 mm 0.00 in0.0 mm
11:45 AM 40.5°F4.7°C 35.4°F1.9°C 82% 11.3 mph E18.2 kmh E 16.0 mph25.7 kmh 30.36 in1028.1 mb 0.00 in0.0 mm 0.00 in0.0 mm 0.00 in0.0 mm
11:44 AM 40.5°F4.7°C 35.4°F1.9°C 82% 10.4 mph E16.7 kmh E 14.0 mph22.5 kmh 30.36 in1028.1 mb 0.00 in0.0 mm 0.00 in0.0 mm 0.00 in0.0 mm
11:43 AM 40.6°F4.8°C 35.5°F1.9°C 82% 9.8 mph E15.8 kmh E 14.0 mph22.5 kmh 30.36 in1028.1 mb 0.00 in0.0 mm 0.00 in0.0 mm 0.00 in0.0 mm
11:42 AM 40.5°F4.7°C 35.4°F1.9°C 82% 10.1 mph E16.3 kmh E 13.0 mph20.9 kmh 30.36 in1028.1 mb 0.00 in0.0 mm 0.00 in0.0 mm 0.00 in0.0 mm
11:41 AM 40.6°F4.8°C 35.5°F1.9°C 82% 7.0 mph E11.3 kmh E 15.0 mph24.1 kmh 30.36 in1028.1 mb 0.00 in0.0 mm 0.00 in0.0 mm 0.00 in0.0 mm
11:40 AM 40.6°F4.8°C 35.5°F1.9°C 82% 10.9 mph E17.5 kmh E 15.0 mph24.1 kmh 30.36 in1028.1 mb 0.00 in0.0 mm 0.00 in0.0 mm 0.00 in0.0 mm
11:39 AM 40.6°F4.8°C 35.5°F1.9°C 82% 9.1 mph E14.6 kmh E 16.0 mph25.7 kmh 30.36 in1028.1 mb 0.00 in0.0 mm 0.00 in0.0 mm 0.00 in0.0 mm
11:38 AM 40.6°F4.8°C 35.5°F1.9°C 82% 11.6 mph E18.7 kmh E 16.0 mph25.7 kmh 30.36 in1028.1 mb 0.00 in0.0 mm 0.00 in0.0 mm 0.00 in0.0 mm
11:37 AM 40.6°F4.8°C 35.5°F1.9°C 82% 10.1 mph E16.3 kmh E 15.0 mph24.1 kmh 30.36 in1028.1 mb 0.00 in0.0 mm 0.00 in0.0 mm 0.00 in0.0 mm
11:36 AM 40.6°F4.8°C 35.5°F1.9°C 82% 11.4 mph E18.3 kmh E 15.0 mph24.1 kmh 30.36 in1028.1 mb 0.00 in0.0 mm 0.00 in0.0 mm 0.00 in0.0 mm
11:35 AM 40.7°F4.8°C 35.6°F2.0°C 82% 10.8 mph E17.4 kmh E 15.0 mph24.1 kmh 30.36 in1028.1 mb 0.00 in0.0 mm 0.00 in0.0 mm 0.00 in0.0 mm
11:34 AM 40.7°F4.8°C 35.6°F2.0°C 82% 9.5 mph E15.3 kmh E 14.0 mph22.5 kmh 30.36 in1028.1 mb 0.00 in0.0 mm 0.00 in0.0 mm 0.00 in0.0 mm
11:33 AM 40.7°F4.8°C 35.6°F2.0°C 82% 10.9 mph E17.5 kmh E 15.0 mph24.1 kmh 30.36 in1028.1 mb 0.00 in0.0 mm 0.00 in0.0 mm 0.00 in0.0 mm
11:32 AM 40.7°F4.8°C 35.3°F1.8°C 81% 11.4 mph E18.3 kmh E 16.0 mph25.7 kmh 30.36 in1028.1 mb 0.00 in0.0 mm 0.00 in0.0 mm 0.00 in0.0 mm
11:31 AM 40.8°F4.9°C 35.4°F1.9°C 81% 11.5 mph E18.5 kmh E 18.0 mph29.0 kmh 30.36 in1028.1 mb 0.00 in0.0 mm 0.00 in0.0 mm 0.00 in0.0 mm
11:30 AM 40.8°F4.9°C 35.4°F1.9°C 81% 13.5 mph E21.7 kmh E 18.0 mph29.0 kmh 30.36 in1028.1 mb 0.00 in0.0 mm 0.00 in0.0 mm 0.00 in0.0 mm
11:29 AM 40.9°F4.9°C 35.5°F1.9°C 81% 12.0 mph E19.3 kmh E 15.0 mph24.1 kmh 30.36 in1028.1 mb 0.00 in0.0 mm 0.00 in0.0 mm 0.00 in0.0 mm
11:28 AM 40.9°F4.9°C 35.5°F1.9°C 81% 7.3 mph E11.7 kmh E 15.0 mph24.1 kmh 30.36 in1028.1 mb 0.00 in0.0 mm 0.00 in0.0 mm 0.00 in0.0 mm
11:27 AM 40.9°F4.9°C 35.5°F1.9°C 81% 11.3 mph E18.2 kmh E 15.0 mph24.1 kmh 30.36 in1028.1 mb 0.00 in0.0 mm 0.00 in0.0 mm 0.00 in0.0 mm
11:26 AM 41.0°F5.0°C 35.6°F2.0°C 81% 9.8 mph E15.8 kmh E 13.0 mph20.9 kmh 30.36 in1028.1 mb 0.00 in0.0 mm 0.00 in0.0 mm 0.00 in0.0 mm
11:25 AM 41.0°F5.0°C 35.6°F2.0°C 81% 8.7 mph E14.0 kmh E 13.0 mph20.9 kmh 30.36 in1028.1 mb 0.00 in0.0 mm 0.00 in0.0 mm 0.00 in0.0 mm
11:24 AM 41.1°F5.1°C 35.7°F2.1°C 81% 9.6 mph E15.4 kmh E 13.0 mph20.9 kmh 30.36 in1028.1 mb 0.00 in0.0 mm 0.00 in0.0 mm 0.00 in0.0 mm
11:23 AM 41.1°F5.1°C 35.4°F1.9°C 80% 7.7 mph E12.4 kmh E 12.0 mph19.3 kmh 30.35 in1027.8 mb 0.00 in0.0 mm 0.00 in0.0 mm 0.00 in0.0 mm
11:22 AM 41.1°F5.1°C 35.4°F1.9°C 80% 9.5 mph E15.3 kmh E 16.0 mph25.7 kmh 30.36 in1028.1 mb 0.00 in0.0 mm 0.00 in0.0 mm 0.00 in0.0 mm
11:21 AM 41.1°F5.1°C 35.4°F1.9°C 80% 12.7 mph E20.4 kmh E 16.0 mph25.7 kmh 30.35 in1027.8 mb 0.00 in0.0 mm 0.00 in0.0 mm 0.00 in0.0 mm
11:20 AM 41.2°F5.1°C 35.5°F1.9°C 80% 10.9 mph E17.5 kmh E 15.0 mph24.1 kmh 30.35 in1027.8 mb 0.00 in0.0 mm 0.00 in0.0 mm 0.00 in0.0 mm
11:19 AM 41.2°F5.1°C 35.5°F1.9°C 80% 9.5 mph E15.3 kmh E 14.0 mph22.5 kmh 30.35 in1027.8 mb 0.00 in0.0 mm 0.00 in0.0 mm 0.00 in0.0 mm
11:18 AM 41.2°F5.1°C 35.5°F1.9°C 80% 9.5 mph E15.3 kmh E 14.0 mph22.5 kmh 30.35 in1027.8 mb 0.00 in0.0 mm 0.00 in0.0 mm 0.00 in0.0 mm
11:17 AM 41.2°F5.1°C 35.5°F1.9°C 80% 10.7 mph E17.2 kmh E 16.0 mph25.7 kmh 30.35 in1027.8 mb 0.00 in0.0 mm 0.00 in0.0 mm 0.00 in0.0 mm
11:16 AM 41.2°F5.1°C 35.5°F1.9°C 80% 12.4 mph E20.0 kmh E 16.0 mph25.7 kmh 30.36 in1028.1 mb 0.00 in0.0 mm 0.00 in0.0 mm 0.00 in0.0 mm
11:15 AM 41.2°F5.1°C 35.5°F1.9°C 80% 9.1 mph E14.6 kmh E 13.0 mph20.9 kmh 30.35 in1027.8 mb 0.00 in0.0 mm 0.00 in0.0 mm 0.00 in0.0 mm
11:14 AM 41.2°F5.1°C 35.5°F1.9°C 80% 9.8 mph E15.8 kmh E 13.0 mph20.9 kmh 30.35 in1027.8 mb 0.00 in0.0 mm 0.00 in0.0 mm 0.00 in0.0 mm
11:13 AM 41.2°F5.1°C 35.5°F1.9°C 80% 9.8 mph E15.8 kmh E 15.0 mph24.1 kmh 30.35 in1027.8 mb 0.00 in0.0 mm 0.00 in0.0 mm 0.00 in0.0 mm
11:12 AM 41.2°F5.1°C 35.5°F1.9°C 80% 11.1 mph E17.9 kmh E 19.0 mph30.6 kmh 30.35 in1027.8 mb 0.00 in0.0 mm 0.00 in0.0 mm 0.00 in0.0 mm
11:11 AM 41.2°F5.1°C 35.5°F1.9°C 80% 15.0 mph E24.1 kmh E 19.0 mph30.6 kmh 30.35 in1027.8 mb 0.00 in0.0 mm 0.00 in0.0 mm 0.00 in0.0 mm
11:10 AM 41.2°F5.1°C 35.5°F1.9°C 80% 11.5 mph E18.5 kmh E 18.0 mph29.0 kmh 30.35 in1027.8 mb 0.00 in0.0 mm 0.00 in0.0 mm 0.00 in0.0 mm
11:09 AM 41.2°F5.1°C 35.5°F1.9°C 80% 11.1 mph E17.9 kmh E 14.0 mph22.5 kmh 30.35 in1027.8 mb 0.00 in0.0 mm 0.00 in0.0 mm 0.00 in0.0 mm
11:08 AM 41.1°F5.1°C 35.4°F1.9°C 80% 9.5 mph E15.3 kmh E 14.0 mph22.5 kmh 30.35 in1027.8 mb 0.00 in0.0 mm 0.00 in0.0 mm 0.00 in0.0 mm
11:07 AM 41.1°F5.1°C 35.4°F1.9°C 80% 10.9 mph E17.5 kmh E 16.0 mph25.7 kmh 30.35 in1027.8 mb 0.00 in0.0 mm 0.00 in0.0 mm 0.00 in0.0 mm
11:06 AM 41.1°F5.1°C 35.4°F1.9°C 80% 12.7 mph E20.4 kmh E 16.0 mph25.7 kmh 30.35 in1027.8 mb 0.00 in0.0 mm 0.00 in0.0 mm 0.00 in0.0 mm
11:05 AM 41.1°F5.1°C 35.4°F1.9°C 80% 13.5 mph E21.7 kmh E 20.0 mph32.2 kmh 30.35 in1027.8 mb 0.00 in0.0 mm 0.00 in0.0 mm 0.00 in0.0 mm
11:04 AM 41.1°F5.1°C 35.4°F1.9°C 80% 14.8 mph E23.8 kmh E 20.0 mph32.2 kmh 30.35 in1027.8 mb 0.00 in0.0 mm 0.00 in0.0 mm 0.00 in0.0 mm
11:03 AM 41.1°F5.1°C 35.4°F1.9°C 80% 8.1 mph E13.0 kmh E 12.0 mph19.3 kmh 30.35 in1027.8 mb 0.00 in0.0 mm 0.00 in0.0 mm 0.00 in0.0 mm
11:02 AM 41.1°F5.1°C 35.4°F1.9°C 80% 9.6 mph E15.4 kmh E 12.0 mph19.3 kmh 30.35 in1027.8 mb 0.00 in0.0 mm 0.00 in0.0 mm 0.00 in0.0 mm
11:01 AM 41.1°F5.1°C 35.4°F1.9°C 80% 8.9 mph E14.3 kmh E 13.0 mph20.9 kmh 30.35 in1027.8 mb 0.00 in0.0 mm 0.00 in0.0 mm 0.00 in0.0 mm
11:00 AM 41.1°F5.1°C 35.4°F1.9°C 80% 10.4 mph E16.7 kmh E 13.0 mph20.9 kmh 30.35 in1027.8 mb 0.00 in0.0 mm 0.00 in0.0 mm 0.00 in0.0 mm
10:59 AM 41.1°F5.1°C 35.4°F1.9°C 80% 8.3 mph E13.4 kmh E 12.0 mph19.3 kmh 30.35 in1027.8 mb 0.00 in0.0 mm 0.00 in0.0 mm 0.00 in0.0 mm
10:58 AM 41.1°F5.1°C 35.4°F1.9°C 80% 9.0 mph E14.5 kmh E 20.0 mph32.2 kmh 30.35 in1027.8 mb 0.00 in0.0 mm 0.00 in0.0 mm 0.00 in0.0 mm
10:57 AM 41.1°F5.1°C 35.4°F1.9°C 80% 13.4 mph E21.6 kmh E 20.0 mph32.2 kmh 30.35 in1027.8 mb 0.00 in0.0 mm 0.00 in0.0 mm 0.00 in0.0 mm
10:56 AM 41.1°F5.1°C 35.4°F1.9°C 80% 9.2 mph E14.8 kmh E 14.0 mph22.5 kmh 30.35 in1027.8 mb 0.00 in0.0 mm 0.00 in0.0 mm 0.00 in0.0 mm
10:55 AM 41.1°F5.1°C 35.4°F1.9°C 80% 8.9 mph E14.3 kmh E 14.0 mph22.5 kmh 30.35 in1027.8 mb 0.00 in0.0 mm 0.00 in0.0 mm 0.00 in0.0 mm
10:54 AM 41.1°F5.1°C 35.4°F1.9°C 80% 9.2 mph E14.8 kmh E 17.0 mph27.4 kmh 30.35 in1027.8 mb 0.00 in0.0 mm 0.00 in0.0 mm 0.00 in0.0 mm
10:53 AM 41.1°F5.1°C 35.4°F1.9°C 80% 12.5 mph E20.1 kmh E 17.0 mph27.4 kmh 30.35 in1027.8 mb 0.00 in0.0 mm 0.00 in0.0 mm 0.00 in0.0 mm
10:52 AM 41.1°F5.1°C 35.4°F1.9°C 80% 11.0 mph E17.7 kmh E 15.0 mph24.1 kmh 30.35 in1027.8 mb 0.00 in0.0 mm 0.00 in0.0 mm 0.00 in0.0 mm
10:51 AM 41.0°F5.0°C 35.3°F1.8°C 80% 12.5 mph E20.1 kmh E 16.0 mph25.7 kmh 30.35 in1027.8 mb 0.00 in0.0 mm 0.00 in0.0 mm 0.00 in0.0 mm
10:50 AM 41.0°F5.0°C 35.3°F1.8°C 80% 11.8 mph E19.0 kmh E 17.0 mph27.4 kmh 30.35 in1027.8 mb 0.00 in0.0 mm 0.00 in0.0 mm 0.00 in0.0 mm
10:49 AM 41.1°F5.1°C 35.4°F1.9°C 80% 11.4 mph E18.3 kmh E 17.0 mph27.4 kmh 30.35 in1027.8 mb 0.00 in0.0 mm 0.00 in0.0 mm 0.00 in0.0 mm
10:48 AM 41.1°F5.1°C 35.4°F1.9°C 80% 8.4 mph E13.5 kmh E 13.0 mph20.9 kmh 30.35 in1027.8 mb 0.00 in0.0 mm 0.00 in0.0 mm 0.00 in0.0 mm
10:47 AM 41.0°F5.0°C 35.3°F1.8°C 80% 6.2 mph E10.0 kmh E 11.0 mph17.7 kmh 30.35 in1027.8 mb 0.00 in0.0 mm 0.00 in0.0 mm 0.00 in0.0 mm
10:46 AM 41.1°F5.1°C 35.4°F1.9°C 80% 8.7 mph ESE14.0 kmh ESE 19.0 mph30.6 kmh 30.35 in1027.8 mb 0.00 in0.0 mm 0.00 in0.0 mm 0.00 in0.0 mm
10:45 AM 41.0°F5.0°C 35.3°F1.8°C 80% 13.7 mph E22.0 kmh E 19.0 mph30.6 kmh 30.35 in1027.8 mb 0.00 in0.0 mm 0.00 in0.0 mm 0.00 in0.0 mm
10:44 AM 41.0°F5.0°C 35.3°F1.8°C 80% 13.7 mph E22.0 kmh E 17.0 mph27.4 kmh 30.35 in1027.8 mb 0.00 in0.0 mm 0.00 in0.0 mm 0.00 in0.0 mm
10:43 AM 41.0°F5.0°C 35.3°F1.8°C 80% 7.3 mph E11.7 kmh E 13.0 mph20.9 kmh 30.35 in1027.8 mb 0.00 in0.0 mm 0.00 in0.0 mm 0.00 in0.0 mm
10:42 AM 41.1°F5.1°C 35.4°F1.9°C 80% 10.2 mph E16.4 kmh E 16.0 mph25.7 kmh 30.35 in1027.8 mb 0.00 in0.0 mm 0.00 in0.0 mm 0.00 in0.0 mm
10:41 AM 41.0°F5.0°C 35.3°F1.8°C 80% 13.4 mph E21.6 kmh E 21.0 mph33.8 kmh 30.35 in1027.8 mb 0.00 in0.0 mm 0.00 in0.0 mm 0.00 in0.0 mm
10:40 AM 41.0°F5.0°C 35.6°F2.0°C 81% 15.1 mph E24.3 kmh E 21.0 mph33.8 kmh 30.35 in1027.8 mb 0.00 in0.0 mm 0.00 in0.0 mm 0.00 in0.0 mm
10:39 AM 41.0°F5.0°C 35.6°F2.0°C 81% 10.5 mph E16.9 kmh E 16.0 mph25.7 kmh 30.35 in1027.8 mb 0.00 in0.0 mm 0.00 in0.0 mm 0.00 in0.0 mm
10:38 AM 41.0°F5.0°C 35.6°F2.0°C 81% 9.9 mph E15.9 kmh E 16.0 mph25.7 kmh 30.34 in1027.4 mb 0.00 in0.0 mm 0.00 in0.0 mm 0.00 in0.0 mm
10:37 AM 41.0°F5.0°C 35.6°F2.0°C 81% 13.8 mph E22.2 kmh E 18.0 mph29.0 kmh 30.34 in1027.4 mb 0.00 in0.0 mm 0.00 in0.0 mm 0.00 in0.0 mm
10:36 AM 41.0°F5.0°C 35.6°F2.0°C 81% 14.9 mph E24.0 kmh E 18.0 mph29.0 kmh 30.34 in1027.4 mb 0.00 in0.0 mm 0.00 in0.0 mm 0.00 in0.0 mm
10:35 AM 41.0°F5.0°C 35.6°F2.0°C 81% 11.7 mph E18.8 kmh E 15.0 mph24.1 kmh 30.35 in1027.8 mb 0.00 in0.0 mm 0.00 in0.0 mm 0.00 in0.0 mm
10:34 AM 41.0°F5.0°C 35.6°F2.0°C 81% 8.2 mph E13.2 kmh E 12.0 mph19.3 kmh 30.34 in1027.4 mb 0.00 in0.0 mm 0.00 in0.0 mm 0.00 in0.0 mm
10:33 AM 41.0°F5.0°C 35.6°F2.0°C 81% 8.8 mph E14.2 kmh E 16.0 mph25.7 kmh 30.34 in1027.4 mb 0.00 in0.0 mm 0.00 in0.0 mm 0.00 in0.0 mm
10:32 AM 41.0°F5.0°C 35.6°F2.0°C 81% 12.4 mph E20.0 kmh E 19.0 mph30.6 kmh 30.34 in1027.4 mb 0.00 in0.0 mm 0.00 in0.0 mm 0.00 in0.0 mm
10:31 AM 41.0°F5.0°C 35.6°F2.0°C 81% 13.6 mph E21.9 kmh E 23.0 mph37.0 kmh 30.34 in1027.4 mb 0.00 in0.0 mm 0.00 in0.0 mm 0.00 in0.0 mm
10:30 AM 40.9°F4.9°C 35.5°F1.9°C 81% 15.5 mph E24.9 kmh E 23.0 mph37.0 kmh 30.34 in1027.4 mb 0.00 in0.0 mm 0.00 in0.0 mm 0.00 in0.0 mm
10:29 AM 41.0°F5.0°C 35.6°F2.0°C 81% 12.7 mph E20.4 kmh E 20.0 mph32.2 kmh 30.34 in1027.4 mb 0.00 in0.0 mm 0.00 in0.0 mm 0.00 in0.0 mm
10:28 AM 41.0°F5.0°C 35.6°F2.0°C 81% 9.2 mph E14.8 kmh E 14.0 mph22.5 kmh 30.34 in1027.4 mb 0.00 in0.0 mm 0.00 in0.0 mm 0.00 in0.0 mm
10:27 AM 40.9°F4.9°C 35.5°F1.9°C 81% 8.3 mph E13.4 kmh E 13.0 mph20.9 kmh 30.34 in1027.4 mb 0.00 in0.0 mm 0.00 in0.0 mm 0.00 in0.0 mm
10:26 AM 41.0°F5.0°C 35.6°F2.0°C 81% 10.4 mph E16.7 kmh E 16.0 mph25.7 kmh 30.34 in1027.4 mb 0.00 in0.0 mm 0.00 in0.0 mm 0.00 in0.0 mm
10:25 AM 41.0°F5.0°C 35.6°F2.0°C 81% 10.9 mph E17.5 kmh E 16.0 mph25.7 kmh 30.34 in1027.4 mb 0.00 in0.0 mm 0.00 in0.0 mm 0.00 in0.0 mm
10:24 AM 41.0°F5.0°C 35.6°F2.0°C 81% 7.5 mph E12.1 kmh E 11.0 mph17.7 kmh 30.34 in1027.4 mb 0.00 in0.0 mm 0.00 in0.0 mm 0.00 in0.0 mm
10:23 AM 41.0°F5.0°C 35.6°F2.0°C 81% 8.4 mph E13.5 kmh E 15.0 mph24.1 kmh 30.34 in1027.4 mb 0.00 in0.0 mm 0.00 in0.0 mm 0.00 in0.0 mm
10:22 AM 41.0°F5.0°C 35.6°F2.0°C 81% 10.5 mph E16.9 kmh E 15.0 mph24.1 kmh 30.34 in1027.4 mb 0.00 in0.0 mm 0.00 in0.0 mm 0.00 in0.0 mm
10:21 AM 41.0°F5.0°C 35.6°F2.0°C 81% 10.1 mph E16.3 kmh E 12.0 mph19.3 kmh 30.34 in1027.4 mb 0.00 in0.0 mm 0.00 in0.0 mm 0.00 in0.0 mm
10:20 AM 41.0°F5.0°C 35.6°F2.0°C 81% 9.2 mph E14.8 kmh E 11.0 mph17.7 kmh 30.34 in1027.4 mb 0.00 in0.0 mm 0.00 in0.0 mm 0.00 in0.0 mm
10:19 AM 40.9°F4.9°C 35.5°F1.9°C 81% 7.3 mph ESE11.7 kmh ESE 16.0 mph25.7 kmh 30.34 in1027.4 mb 0.00 in0.0 mm 0.00 in0.0 mm 0.00 in0.0 mm
10:18 AM 40.9°F4.9°C 35.5°F1.9°C 81% 11.2 mph E18.0 kmh E 18.0 mph29.0 kmh 30.34 in1027.4 mb 0.00 in0.0 mm 0.00 in0.0 mm 0.00 in0.0 mm
10:17 AM 40.9°F4.9°C 35.5°F1.9°C 81% 14.3 mph E23.0 kmh E 18.0 mph29.0 kmh 30.34 in1027.4 mb 0.00 in0.0 mm 0.00 in0.0 mm 0.00 in0.0 mm
10:16 AM 40.8°F4.9°C 35.7°F2.1°C 82% 13.3 mph E21.4 kmh E 17.0 mph27.4 kmh 30.34 in1027.4 mb 0.00 in0.0 mm 0.00 in0.0 mm 0.00 in0.0 mm
10:15 AM 40.9°F4.9°C 35.8°F2.1°C 82% 10.4 mph ESE16.7 kmh ESE 17.0 mph27.4 kmh 30.34 in1027.4 mb 0.00 in0.0 mm 0.00 in0.0 mm 0.00 in0.0 mm
10:14 AM 40.9°F4.9°C 35.8°F2.1°C 82% 11.6 mph E18.7 kmh E 17.0 mph27.4 kmh 30.34 in1027.4 mb 0.00 in0.0 mm 0.00 in0.0 mm 0.00 in0.0 mm
10:13 AM 40.9°F4.9°C 35.8°F2.1°C 82% 10.7 mph E17.2 kmh E 15.0 mph24.1 kmh 30.34 in1027.4 mb 0.00 in0.0 mm 0.00 in0.0 mm 0.00 in0.0 mm
10:12 AM 40.8°F4.9°C 35.7°F2.1°C 82% 9.9 mph E15.9 kmh E 16.0 mph25.7 kmh 30.34 in1027.4 mb 0.00 in0.0 mm 0.00 in0.0 mm 0.00 in0.0 mm
10:11 AM 40.8°F4.9°C 35.7°F2.1°C 82% 10.6 mph E17.1 kmh E 16.0 mph25.7 kmh 30.34 in1027.4 mb 0.00 in0.0 mm 0.00 in0.0 mm 0.00 in0.0 mm
10:10 AM 40.8°F4.9°C 35.7°F2.1°C 82% 8.8 mph E14.2 kmh E 13.0 mph20.9 kmh 30.34 in1027.4 mb 0.00 in0.0 mm 0.00 in0.0 mm 0.00 in0.0 mm
10:09 AM 40.8°F4.9°C 35.7°F2.1°C 82% 9.7 mph E15.6 kmh E 13.0 mph20.9 kmh 30.34 in1027.4 mb 0.00 in0.0 mm 0.00 in0.0 mm 0.00 in0.0 mm
10:08 AM 40.8°F4.9°C 35.7°F2.1°C 82% 10.6 mph E17.1 kmh E 13.0 mph20.9 kmh 30.34 in1027.4 mb 0.00 in0.0 mm 0.00 in0.0 mm 0.00 in0.0 mm
10:07 AM 40.8°F4.9°C 35.7°F2.1°C 82% 9.2 mph E14.8 kmh E 13.0 mph20.9 kmh 30.34 in1027.4 mb 0.00 in0.0 mm 0.00 in0.0 mm 0.00 in0.0 mm
10:06 AM 40.8°F4.9°C 35.7°F2.1°C 82% 9.6 mph E15.4 kmh E 14.0 mph22.5 kmh 30.34 in1027.4 mb 0.00 in0.0 mm 0.00 in0.0 mm 0.00 in0.0 mm
10:05 AM 40.8°F4.9°C 35.7°F2.1°C 82% 12.0 mph E19.3 kmh E 17.0 mph27.4 kmh 30.33 in1027.1 mb 0.00 in0.0 mm 0.00 in0.0 mm 0.00 in0.0 mm
10:04 AM 40.8°F4.9°C 35.7°F2.1°C 82% 11.4 mph E18.3 kmh E 17.0 mph27.4 kmh 30.33 in1027.1 mb 0.00 in0.0 mm 0.00 in0.0 mm 0.00 in0.0 mm
10:03 AM 40.7°F4.8°C 35.6°F2.0°C 82% 9.7 mph E15.6 kmh E 13.0 mph20.9 kmh 30.34 in1027.4 mb 0.00 in0.0 mm 0.00 in0.0 mm 0.00 in0.0 mm
10:02 AM 40.7°F4.8°C 35.6°F2.0°C 82% 9.2 mph E14.8 kmh E 12.0 mph19.3 kmh 30.33 in1027.1 mb 0.00 in0.0 mm 0.00 in0.0 mm 0.00 in0.0 mm
10:01 AM 40.8°F4.9°C 35.7°F2.1°C 82% 8.5 mph E13.7 kmh E 12.0 mph19.3 kmh 30.33 in1027.1 mb 0.00 in0.0 mm 0.00 in0.0 mm 0.00 in0.0 mm
10:00 AM 40.8°F4.9°C 35.7°F2.1°C 82% 7.8 mph E12.6 kmh E 13.0 mph20.9 kmh 30.33 in1027.1 mb 0.00 in0.0 mm 0.00 in0.0 mm 0.00 in0.0 mm
09:59 AM 40.8°F4.9°C 35.7°F2.1°C 82% 9.5 mph E15.3 kmh E 13.0 mph20.9 kmh 30.33 in1027.1 mb 0.00 in0.0 mm 0.00 in0.0 mm 0.00 in0.0 mm
09:58 AM 40.8°F4.9°C 35.7°F2.1°C 82% 9.2 mph E14.8 kmh E 14.0 mph22.5 kmh 30.33 in1027.1 mb 0.00 in0.0 mm 0.00 in0.0 mm 0.00 in0.0 mm
09:57 AM 40.8°F4.9°C 35.7°F2.1°C 82% 8.1 mph E13.0 kmh E 14.0 mph22.5 kmh 30.33 in1027.1 mb 0.00 in0.0 mm 0.00 in0.0 mm 0.00 in0.0 mm
09:56 AM 40.8°F4.9°C 35.7°F2.1°C 82% 7.5 mph E12.1 kmh E 12.0 mph19.3 kmh 30.33 in1027.1 mb 0.00 in0.0 mm 0.00 in0.0 mm 0.00 in0.0 mm
09:55 AM 40.8°F4.9°C 35.7°F2.1°C 82% 9.2 mph E14.8 kmh E 15.0 mph24.1 kmh 30.33 in1027.1 mb 0.00 in0.0 mm 0.00 in0.0 mm 0.00 in0.0 mm
09:54 AM 40.8°F4.9°C 35.7°F2.1°C 82% 11.1 mph E17.9 kmh E 16.0 mph25.7 kmh 30.33 in1027.1 mb 0.00 in0.0 mm 0.00 in0.0 mm 0.00 in0.0 mm
09:53 AM 40.8°F4.9°C 35.7°F2.1°C 82% 13.1 mph E21.1 kmh E 16.0 mph25.7 kmh 30.33 in1027.1 mb 0.00 in0.0 mm 0.00 in0.0 mm 0.00 in0.0 mm
09:52 AM 40.8°F4.9°C 35.7°F2.1°C 82% 8.3 mph E13.4 kmh E 15.0 mph24.1 kmh 30.33 in1027.1 mb 0.00 in0.0 mm 0.00 in0.0 mm 0.00 in0.0 mm
09:51 AM 40.8°F4.9°C 35.7°F2.1°C 82% 11.7 mph E18.8 kmh E 19.0 mph30.6 kmh 30.33 in1027.1 mb 0.00 in0.0 mm 0.00 in0.0 mm 0.00 in0.0 mm
09:50 AM 40.8°F4.9°C 35.7°F2.1°C 82% 14.9 mph E24.0 kmh E 19.0 mph30.6 kmh 30.33 in1027.1 mb 0.00 in0.0 mm 0.00 in0.0 mm 0.00 in0.0 mm
09:49 AM 40.8°F4.9°C 35.7°F2.1°C 82% 12.5 mph E20.1 kmh E 18.0 mph29.0 kmh 30.33 in1027.1 mb 0.00 in0.0 mm 0.00 in0.0 mm 0.00 in0.0 mm
09:48 AM 40.8°F4.9°C 35.7°F2.1°C 82% 11.7 mph E18.8 kmh E 15.0 mph24.1 kmh 30.33 in1027.1 mb 0.00 in0.0 mm 0.00 in0.0 mm 0.00 in0.0 mm
09:47 AM 40.8°F4.9°C 35.7°F2.1°C 82% 12.7 mph E20.4 kmh E 15.0 mph24.1 kmh 30.33 in1027.1 mb 0.00 in0.0 mm 0.00 in0.0 mm 0.00 in0.0 mm
09:46 AM 40.8°F4.9°C 35.7°F2.1°C 82% 11.0 mph E17.7 kmh E 18.0 mph29.0 kmh 30.33 in1027.1 mb 0.00 in0.0 mm 0.00 in0.0 mm 0.00 in0.0 mm
09:45 AM 40.8°F4.9°C 35.7°F2.1°C 82% 14.3 mph E23.0 kmh E 18.0 mph29.0 kmh 30.33 in1027.1 mb 0.00 in0.0 mm 0.00 in0.0 mm 0.00 in0.0 mm
09:44 AM 40.7°F4.8°C 35.6°F2.0°C 82% 13.8 mph E22.2 kmh E 18.0 mph29.0 kmh 30.33 in1027.1 mb 0.00 in0.0 mm 0.00 in0.0 mm 0.00 in0.0 mm
09:43 AM 40.7°F4.8°C 35.6°F2.0°C 82% 11.2 mph E18.0 kmh E 14.0 mph22.5 kmh 30.33 in1027.1 mb 0.00 in0.0 mm 0.00 in0.0 mm 0.00 in0.0 mm
09:42 AM 40.7°F4.8°C 35.6°F2.0°C 82% 12.3 mph E19.8 kmh E 15.0 mph24.1 kmh 30.33 in1027.1 mb 0.00 in0.0 mm 0.00 in0.0 mm 0.00 in0.0 mm
09:41 AM 40.6°F4.8°C 35.5°F1.9°C 82% 12.8 mph E20.6 kmh E 15.0 mph24.1 kmh 30.33 in1027.1 mb 0.00 in0.0 mm 0.00 in0.0 mm 0.00 in0.0 mm
09:40 AM 40.6°F4.8°C 35.5°F1.9°C 82% 12.3 mph E19.8 kmh E 16.0 mph25.7 kmh 30.33 in1027.1 mb 0.00 in0.0 mm 0.00 in0.0 mm 0.00 in0.0 mm
09:39 AM 40.6°F4.8°C 35.5°F1.9°C 82% 11.1 mph E17.9 kmh E 19.0 mph30.6 kmh 30.33 in1027.1 mb 0.00 in0.0 mm 0.00 in0.0 mm 0.00 in0.0 mm
09:38 AM 40.6°F4.8°C 35.5°F1.9°C 82% 12.1 mph E19.5 kmh E 19.0 mph30.6 kmh 30.33 in1027.1 mb 0.00 in0.0 mm 0.00 in0.0 mm 0.00 in0.0 mm
09:37 AM 40.6°F4.8°C 35.5°F1.9°C 82% 9.6 mph E15.4 kmh E 18.0 mph29.0 kmh 30.33 in1027.1 mb 0.00 in0.0 mm 0.00 in0.0 mm 0.00 in0.0 mm
09:36 AM 40.6°F4.8°C 35.5°F1.9°C 82% 12.3 mph E19.8 kmh E 18.0 mph29.0 kmh 30.33 in1027.1 mb 0.00 in0.0 mm 0.00 in0.0 mm 0.00 in0.0 mm
09:35 AM 40.5°F4.7°C 35.8°F2.1°C 83% 13.2 mph E21.2 kmh E 19.0 mph30.6 kmh 30.32 in1026.8 mb 0.00 in0.0 mm 0.00 in0.0 mm 0.00 in0.0 mm
09:34 AM 40.6°F4.8°C 35.8°F2.1°C 83% 12.4 mph E20.0 kmh E 17.0 mph27.4 kmh 30.33 in1027.1 mb 0.00 in0.0 mm 0.00 in0.0 mm 0.00 in0.0 mm
09:33 AM 40.5°F4.7°C 35.8°F2.1°C 83% 12.3 mph E19.8 kmh E 16.0 mph25.7 kmh 30.32 in1026.8 mb 0.00 in0.0 mm 0.00 in0.0 mm 0.00 in0.0 mm
09:32 AM 40.5°F4.7°C 35.8°F2.1°C 83% 12.2 mph E19.6 kmh E 16.0 mph25.7 kmh 30.32 in1026.8 mb 0.00 in0.0 mm 0.00 in0.0 mm 0.00 in0.0 mm
09:31 AM 40.5°F4.7°C 35.8°F2.1°C 83% 10.4 mph E16.7 kmh E 15.0 mph24.1 kmh 30.32 in1026.8 mb 0.00 in0.0 mm 0.00 in0.0 mm 0.00 in0.0 mm
09:30 AM 40.5°F4.7°C 35.8°F2.1°C 83% 11.1 mph E17.9 kmh E 15.0 mph24.1 kmh 30.32 in1026.8 mb 0.00 in0.0 mm 0.00 in0.0 mm 0.00 in0.0 mm
09:29 AM 40.5°F4.7°C 35.8°F2.1°C 83% 9.1 mph E14.6 kmh E 15.0 mph24.1 kmh 30.32 in1026.8 mb 0.00 in0.0 mm 0.00 in0.0 mm 0.00 in0.0 mm
09:28 AM 40.4°F4.7°C 35.7°F2.1°C 83% 11.5 mph E18.5 kmh E 18.0 mph29.0 kmh 30.32 in1026.8 mb 0.00 in0.0 mm 0.00 in0.0 mm 0.00 in0.0 mm
09:27 AM 40.4°F4.7°C 35.7°F2.1°C 83% 12.1 mph E19.5 kmh E 18.0 mph29.0 kmh 30.32 in1026.8 mb 0.00 in0.0 mm 0.00 in0.0 mm 0.00 in0.0 mm
09:26 AM 40.4°F4.7°C 35.7°F2.1°C 83% 11.8 mph E19.0 kmh E 15.0 mph24.1 kmh 30.32 in1026.8 mb 0.00 in0.0 mm 0.00 in0.0 mm 0.00 in0.0 mm
09:25 AM 40.3°F4.6°C 35.6°F2.0°C 83% 10.6 mph E17.1 kmh E 14.0 mph22.5 kmh 30.32 in1026.8 mb 0.00 in0.0 mm 0.00 in0.0 mm 0.00 in0.0 mm
09:24 AM 40.4°F4.7°C 36.0°F2.2°C 84% 9.8 mph E15.8 kmh E 13.0 mph20.9 kmh 30.32 in1026.8 mb 0.00 in0.0 mm 0.00 in0.0 mm 0.00 in0.0 mm
09:23 AM 40.3°F4.6°C 35.9°F2.2°C 84% 10.0 mph E16.1 kmh E 15.0 mph24.1 kmh 30.32 in1026.8 mb 0.00 in0.0 mm 0.00 in0.0 mm 0.00 in0.0 mm
09:22 AM 40.2°F4.6°C 35.8°F2.1°C 84% 12.2 mph E19.6 kmh E 16.0 mph25.7 kmh 30.32 in1026.8 mb 0.00 in0.0 mm 0.00 in0.0 mm 0.00 in0.0 mm
09:21 AM 40.2°F4.6°C 35.8°F2.1°C 84% 10.6 mph E17.1 kmh E 16.0 mph25.7 kmh 30.32 in1026.8 mb 0.00 in0.0 mm 0.00 in0.0 mm 0.00 in0.0 mm
09:20 AM 40.2°F4.6°C 35.8°F2.1°C 84% 12.1 mph E19.5 kmh E 15.0 mph24.1 kmh 30.32 in1026.8 mb 0.00 in0.0 mm 0.00 in0.0 mm 0.00 in0.0 mm
09:19 AM 40.2°F4.6°C 35.8°F2.1°C 84% 10.1 mph E16.3 kmh E 14.0 mph22.5 kmh 30.32 in1026.8 mb 0.00 in0.0 mm 0.00 in0.0 mm 0.00 in0.0 mm
09:18 AM 40.2°F4.6°C 35.8°F2.1°C 84% 7.8 mph E12.6 kmh E 13.0 mph20.9 kmh 30.32 in1026.8 mb 0.00 in0.0 mm 0.00 in0.0 mm 0.00 in0.0 mm
09:17 AM 40.2°F4.6°C 35.8°F2.1°C 84% 9.7 mph E15.6 kmh E 15.0 mph24.1 kmh 30.32 in1026.8 mb 0.00 in0.0 mm 0.00 in0.0 mm 0.00 in0.0 mm
09:16 AM 40.1°F4.5°C 35.7°F2.1°C 84% 12.4 mph E20.0 kmh E 15.0 mph24.1 kmh 30.32 in1026.8 mb 0.00 in0.0 mm 0.00 in0.0 mm 0.00 in0.0 mm
09:15 AM 40.2°F4.6°C 35.8°F2.1°C 84% 11.9 mph E19.2 kmh E 15.0 mph24.1 kmh 30.32 in1026.8 mb 0.00 in0.0 mm 0.00 in0.0 mm 0.00 in0.0 mm
09:14 AM 40.1°F4.5°C 36.0°F2.2°C 85% 10.6 mph E17.1 kmh E 14.0 mph22.5 kmh 30.32 in1026.8 mb 0.00 in0.0 mm 0.00 in0.0 mm 0.00 in0.0 mm
09:13 AM 40.1°F4.5°C 36.0°F2.2°C 85% 10.5 mph E16.9 kmh E 14.0 mph22.5 kmh 30.32 in1026.8 mb 0.00 in0.0 mm 0.00 in0.0 mm 0.00 in0.0 mm
09:12 AM 40.0°F4.4°C 35.9°F2.2°C 85% 9.3 mph E15.0 kmh E 17.0 mph27.4 kmh 30.32 in1026.8 mb 0.00 in0.0 mm 0.00 in0.0 mm 0.00 in0.0 mm
09:11 AM 40.0°F4.4°C 35.9°F2.2°C 85% 12.1 mph E19.5 kmh E 17.0 mph27.4 kmh 30.32 in1026.8 mb 0.00 in0.0 mm 0.00 in0.0 mm 0.00 in0.0 mm
09:10 AM 39.9°F4.4°C 35.8°F2.1°C 85% 11.9 mph E19.2 kmh E 15.0 mph24.1 kmh 30.32 in1026.8 mb 0.00 in0.0 mm 0.00 in0.0 mm 0.00 in0.0 mm
09:09 AM 40.0°F4.4°C 35.9°F2.2°C 85% 9.2 mph E14.8 kmh E 13.0 mph20.9 kmh 30.32 in1026.8 mb 0.00 in0.0 mm 0.00 in0.0 mm 0.00 in0.0 mm
09:08 AM 39.9°F4.4°C 35.8°F2.1°C 85% 8.5 mph E13.7 kmh E 12.0 mph19.3 kmh 30.32 in1026.8 mb 0.00 in0.0 mm 0.00 in0.0 mm 0.00 in0.0 mm
09:07 AM 39.9°F4.4°C 35.8°F2.1°C 85% 10.8 mph E17.4 kmh E 15.0 mph24.1 kmh 30.32 in1026.8 mb 0.00 in0.0 mm 0.00 in0.0 mm 0.00 in0.0 mm
09:06 AM 39.9°F4.4°C 35.8°F2.1°C 85% 10.7 mph E17.2 kmh E 15.0 mph24.1 kmh 30.32 in1026.8 mb 0.00 in0.0 mm 0.00 in0.0 mm 0.00 in0.0 mm
09:05 AM 39.8°F4.3°C 35.7°F2.1°C 85% 8.5 mph E13.7 kmh E 13.0 mph20.9 kmh 30.32 in1026.8 mb 0.00 in0.0 mm 0.00 in0.0 mm 0.00 in0.0 mm
09:04 AM 39.9°F4.4°C 35.8°F2.1°C 85% 8.7 mph E14.0 kmh E 15.0 mph24.1 kmh 30.32 in1026.8 mb 0.00 in0.0 mm 0.00 in0.0 mm 0.00 in0.0 mm
09:03 AM 39.9°F4.4°C 35.8°F2.1°C 85% 9.9 mph E15.9 kmh E 15.0 mph24.1 kmh 30.32 in1026.8 mb 0.00 in0.0 mm 0.00 in0.0 mm 0.00 in0.0 mm
09:02 AM 39.9°F4.4°C 35.8°F2.1°C 85% 9.6 mph E15.4 kmh E 13.0 mph20.9 kmh 30.32 in1026.8 mb 0.00 in0.0 mm 0.00 in0.0 mm 0.00 in0.0 mm
09:01 AM 39.8°F4.3°C 36.0°F2.2°C 86% 9.7 mph E15.6 kmh E 13.0 mph20.9 kmh 30.32 in1026.8 mb 0.00 in0.0 mm 0.00 in0.0 mm 0.00 in0.0 mm
09:00 AM 39.8°F4.3°C 36.0°F2.2°C 86% 9.5 mph ENE15.3 kmh ENE 15.0 mph24.1 kmh 30.32 in1026.8 mb 0.00 in0.0 mm 0.00 in0.0 mm 0.00 in0.0 mm
08:59 AM 39.8°F4.3°C 36.0°F2.2°C 86% 11.8 mph E19.0 kmh E 15.0 mph24.1 kmh 30.32 in1026.8 mb 0.00 in0.0 mm 0.00 in0.0 mm 0.00 in0.0 mm
08:58 AM 39.8°F4.3°C 36.0°F2.2°C 86% 9.5 mph E15.3 kmh E 16.0 mph25.7 kmh 30.32 in1026.8 mb 0.00 in0.0 mm 0.00 in0.0 mm 0.00 in0.0 mm
08:57 AM 39.8°F4.3°C 35.7°F2.1°C 85% 11.1 mph E17.9 kmh E 16.0 mph25.7 kmh 30.32 in1026.8 mb 0.00 in0.0 mm 0.00 in0.0 mm 0.00 in0.0 mm
08:56 AM 39.8°F4.3°C 35.7°F2.1°C 85% 7.9 mph E12.7 kmh E 12.0 mph19.3 kmh 30.32 in1026.8 mb 0.00 in0.0 mm 0.00 in0.0 mm 0.00 in0.0 mm
08:55 AM 39.8°F4.3°C 35.7°F2.1°C 85% 10.6 mph E17.1 kmh E 12.0 mph19.3 kmh 30.32 in1026.8 mb 0.00 in0.0 mm 0.00 in0.0 mm 0.00 in0.0 mm
08:54 AM 39.8°F4.3°C 35.7°F2.1°C 85% 7.7 mph E12.4 kmh E 11.0 mph17.7 kmh 30.32 in1026.8 mb 0.00 in0.0 mm 0.00 in0.0 mm 0.00 in0.0 mm
08:53 AM 39.8°F4.3°C 35.7°F2.1°C 85% 9.3 mph E15.0 kmh E 12.0 mph19.3 kmh 30.32 in1026.8 mb 0.00 in0.0 mm 0.00 in0.0 mm 0.00 in0.0 mm
08:52 AM 39.8°F4.3°C 35.7°F2.1°C 85% 9.8 mph E15.8 kmh E 14.0 mph22.5 kmh 30.32 in1026.8 mb 0.00 in0.0 mm 0.00 in0.0 mm 0.00 in0.0 mm
08:51 AM 39.8°F4.3°C 35.7°F2.1°C 85% 10.6 mph E17.1 kmh E 14.0 mph22.5 kmh 30.32 in1026.8 mb 0.00 in0.0 mm 0.00 in0.0 mm 0.00 in0.0 mm
08:50 AM 39.8°F4.3°C 35.7°F2.1°C 85% 8.4 mph E13.5 kmh E 12.0 mph19.3 kmh 30.32 in1026.8 mb 0.00 in0.0 mm 0.00 in0.0 mm 0.00 in0.0 mm
08:49 AM 39.8°F4.3°C 35.7°F2.1°C 85% 7.5 mph ENE12.1 kmh ENE 15.0 mph24.1 kmh 30.32 in1026.8 mb 0.00 in0.0 mm 0.00 in0.0 mm 0.00 in0.0 mm
08:48 AM 39.8°F4.3°C 35.7°F2.1°C 85% 12.5 mph E20.1 kmh E 15.0 mph24.1 kmh 30.32 in1026.8 mb 0.00 in0.0 mm 0.00 in0.0 mm 0.00 in0.0 mm
08:47 AM 39.8°F4.3°C 35.7°F2.1°C 85% 10.0 mph E16.1 kmh E 14.0 mph22.5 kmh 30.32 in1026.8 mb 0.00 in0.0 mm 0.00 in0.0 mm 0.00 in0.0 mm
08:46 AM 39.8°F4.3°C 35.7°F2.1°C 85% 7.2 mph E11.6 kmh E 13.0 mph20.9 kmh 30.32 in1026.8 mb 0.00 in0.0 mm 0.00 in0.0 mm 0.00 in0.0 mm
08:45 AM 39.8°F4.3°C 35.7°F2.1°C 85% 8.9 mph E14.3 kmh E 14.0 mph22.5 kmh 30.32 in1026.8 mb 0.00 in0.0 mm 0.00 in0.0 mm 0.00 in0.0 mm
08:44 AM 39.8°F4.3°C 35.7°F2.1°C 85% 10.4 mph E16.7 kmh E 14.0 mph22.5 kmh 30.31 in1026.4 mb 0.00 in0.0 mm 0.00 in0.0 mm 0.00 in0.0 mm
08:43 AM 39.8°F4.3°C 35.7°F2.1°C 85% 8.4 mph E13.5 kmh E 11.0 mph17.7 kmh 30.31 in1026.4 mb 0.00 in0.0 mm 0.00 in0.0 mm 0.00 in0.0 mm
08:42 AM 39.7°F4.3°C 35.6°F2.0°C 85% 9.2 mph E14.8 kmh E 13.0 mph20.9 kmh 30.31 in1026.4 mb 0.00 in0.0 mm 0.00 in0.0 mm 0.00 in0.0 mm
08:41 AM 39.8°F4.3°C 35.7°F2.1°C 85% 9.5 mph E15.3 kmh E 15.0 mph24.1 kmh 30.31 in1026.4 mb 0.00 in0.0 mm 0.00 in0.0 mm 0.00 in0.0 mm
08:40 AM 39.8°F4.3°C 35.4°F1.9°C 84% 9.5 mph E15.3 kmh E 16.0 mph25.7 kmh 30.31 in1026.4 mb 0.00 in0.0 mm 0.00 in0.0 mm 0.00 in0.0 mm
08:39 AM 39.8°F4.3°C 35.4°F1.9°C 84% 12.0 mph E19.3 kmh E 16.0 mph25.7 kmh 30.31 in1026.4 mb 0.00 in0.0 mm 0.00 in0.0 mm 0.00 in0.0 mm
08:38 AM 39.8°F4.3°C 35.4°F1.9°C 84% 11.0 mph E17.7 kmh E 13.0 mph20.9 kmh 30.31 in1026.4 mb 0.00 in0.0 mm 0.00 in0.0 mm 0.00 in0.0 mm
08:37 AM 39.8°F4.3°C 35.4°F1.9°C 84% 9.8 mph E15.8 kmh E 13.0 mph20.9 kmh 30.31 in1026.4 mb 0.00 in0.0 mm 0.00 in0.0 mm 0.00 in0.0 mm
08:36 AM 39.8°F4.3°C 35.4°F1.9°C 84% 10.1 mph E16.3 kmh E 12.0 mph19.3 kmh 30.31 in1026.4 mb 0.00 in0.0 mm 0.00 in0.0 mm 0.00 in0.0 mm
08:35 AM 39.8°F4.3°C 35.4°F1.9°C 84% 8.7 mph E14.0 kmh E 12.0 mph19.3 kmh 30.31 in1026.4 mb 0.00 in0.0 mm 0.00 in0.0 mm 0.00 in0.0 mm
08:34 AM 39.8°F4.3°C 35.7°F2.1°C 85% 9.3 mph E15.0 kmh E 17.0 mph27.4 kmh 30.31 in1026.4 mb 0.00 in0.0 mm 0.00 in0.0 mm 0.00 in0.0 mm
08:33 AM 39.8°F4.3°C 35.7°F2.1°C 85% 10.8 mph E17.4 kmh E 17.0 mph27.4 kmh 30.31 in1026.4 mb 0.00 in0.0 mm 0.00 in0.0 mm 0.00 in0.0 mm
08:32 AM 39.8°F4.3°C 35.7°F2.1°C 85% 9.4 mph E15.1 kmh E 14.0 mph22.5 kmh 30.31 in1026.4 mb 0.00 in0.0 mm 0.00 in0.0 mm 0.00 in0.0 mm
08:31 AM 39.7°F4.3°C 35.6°F2.0°C 85% 11.9 mph E19.2 kmh E 15.0 mph24.1 kmh 30.31 in1026.4 mb 0.00 in0.0 mm 0.00 in0.0 mm 0.00 in0.0 mm
08:30 AM 39.7°F4.3°C 35.6°F2.0°C 85% 12.9 mph E20.8 kmh E 16.0 mph25.7 kmh 30.31 in1026.4 mb 0.00 in0.0 mm 0.00 in0.0 mm 0.00 in0.0 mm
08:29 AM 39.7°F4.3°C 35.6°F2.0°C 85% 9.5 mph E15.3 kmh E 16.0 mph25.7 kmh 30.31 in1026.4 mb 0.00 in0.0 mm 0.00 in0.0 mm 0.00 in0.0 mm
08:28 AM 39.7°F4.3°C 35.6°F2.0°C 85% 9.7 mph E15.6 kmh E 13.0 mph20.9 kmh 30.31 in1026.4 mb 0.00 in0.0 mm 0.00 in0.0 mm 0.00 in0.0 mm
08:27 AM 39.7°F4.3°C 35.6°F2.0°C 85% 10.2 mph E16.4 kmh E 13.0 mph20.9 kmh 30.31 in1026.4 mb 0.00 in0.0 mm 0.00 in0.0 mm 0.00 in0.0 mm
08:26 AM 39.7°F4.3°C 35.6°F2.0°C 85% 8.4 mph E13.5 kmh E 13.0 mph20.9 kmh 30.31 in1026.4 mb 0.00 in0.0 mm 0.00 in0.0 mm 0.00 in0.0 mm
08:25 AM 39.7°F4.3°C 35.6°F2.0°C 85% 9.8 mph E15.8 kmh E 13.0 mph20.9 kmh 30.31 in1026.4 mb 0.00 in0.0 mm 0.00 in0.0 mm 0.00 in0.0 mm
08:24 AM 39.7°F4.3°C 35.6°F2.0°C 85% 8.3 mph E13.4 kmh E 12.0 mph19.3 kmh 30.31 in1026.4 mb 0.00 in0.0 mm 0.00 in0.0 mm 0.00 in0.0 mm
08:23 AM 39.7°F4.3°C 35.6°F2.0°C 85% 8.6 mph E13.8 kmh E 12.0 mph19.3 kmh 30.31 in1026.4 mb 0.00 in0.0 mm 0.00 in0.0 mm 0.00 in0.0 mm
08:22 AM 39.7°F4.3°C 35.6°F2.0°C 85% 7.4 mph E11.9 kmh E 11.0 mph17.7 kmh 30.31 in1026.4 mb 0.00 in0.0 mm 0.00 in0.0 mm 0.00 in0.0 mm
08:21 AM 39.7°F4.3°C 35.3°F1.8°C 84% 9.0 mph E14.5 kmh E 11.0 mph17.7 kmh 30.31 in1026.4 mb 0.00 in0.0 mm 0.00 in0.0 mm 0.00 in0.0 mm
08:20 AM 39.7°F4.3°C 35.6°F2.0°C 85% 7.5 mph E12.1 kmh E 14.0 mph22.5 kmh 30.31 in1026.4 mb 0.00 in0.0 mm 0.00 in0.0 mm 0.00 in0.0 mm
08:19 AM 39.7°F4.3°C 35.6°F2.0°C 85% 9.8 mph E15.8 kmh E 14.0 mph22.5 kmh 30.30 in1026.1 mb 0.00 in0.0 mm 0.00 in0.0 mm 0.00 in0.0 mm
08:18 AM 39.7°F4.3°C 35.3°F1.8°C 84% 9.7 mph E15.6 kmh E 14.0 mph22.5 kmh 30.30 in1026.1 mb 0.00 in0.0 mm 0.00 in0.0 mm 0.00 in0.0 mm
08:17 AM 39.7°F4.3°C 35.6°F2.0°C 85% 11.0 mph E17.7 kmh E 14.0 mph22.5 kmh 30.30 in1026.1 mb 0.00 in0.0 mm 0.00 in0.0 mm 0.00 in0.0 mm
08:16 AM 39.7°F4.3°C 35.6°F2.0°C 85% 10.2 mph E16.4 kmh E 14.0 mph22.5 kmh 30.30 in1026.1 mb 0.00 in0.0 mm 0.00 in0.0 mm 0.00 in0.0 mm
08:15 AM 39.7°F4.3°C 35.3°F1.8°C 84% 9.5 mph E15.3 kmh E 12.0 mph19.3 kmh 30.30 in1026.1 mb 0.00 in0.0 mm 0.00 in0.0 mm 0.00 in0.0 mm
08:14 AM 39.7°F4.3°C 35.3°F1.8°C 84% 8.4 mph E13.5 kmh E 12.0 mph19.3 kmh 30.30 in1026.1 mb 0.00 in0.0 mm 0.00 in0.0 mm 0.00 in0.0 mm
08:13 AM 39.6°F4.2°C 35.2°F1.8°C 84% 9.7 mph E15.6 kmh E 14.0 mph22.5 kmh 30.30 in1026.1 mb 0.00 in0.0 mm 0.00 in0.0 mm 0.00 in0.0 mm
08:12 AM 39.7°F4.3°C 35.3°F1.8°C 84% 10.2 mph E16.4 kmh E 14.0 mph22.5 kmh 30.30 in1026.1 mb 0.00 in0.0 mm 0.00 in0.0 mm 0.00 in0.0 mm
08:11 AM 39.7°F4.3°C 35.3°F1.8°C 84% 10.2 mph E16.4 kmh E 13.0 mph20.9 kmh 30.30 in1026.1 mb 0.00 in0.0 mm 0.00 in0.0 mm 0.00 in0.0 mm
08:10 AM 39.8°F4.3°C 35.4°F1.9°C 84% 9.2 mph E14.8 kmh E 12.0 mph19.3 kmh 30.30 in1026.1 mb 0.00 in0.0 mm 0.00 in0.0 mm 0.00 in0.0 mm
08:09 AM 39.8°F4.3°C 35.4°F1.9°C 84% 9.1 mph E14.6 kmh E 12.0 mph19.3 kmh 30.30 in1026.1 mb 0.00 in0.0 mm 0.00 in0.0 mm 0.00 in0.0 mm
08:08 AM 39.7°F4.3°C 35.3°F1.8°C 84% 10.9 mph E17.5 kmh E 15.0 mph24.1 kmh 30.30 in1026.1 mb 0.00 in0.0 mm 0.00 in0.0 mm 0.00 in0.0 mm
08:07 AM 39.8°F4.3°C 35.4°F1.9°C 84% 11.5 mph E18.5 kmh E 15.0 mph24.1 kmh 30.30 in1026.1 mb 0.00 in0.0 mm 0.00 in0.0 mm 0.00 in0.0 mm
08:06 AM 39.8°F4.3°C 35.4°F1.9°C 84% 9.6 mph E15.4 kmh E 14.0 mph22.5 kmh 30.30 in1026.1 mb 0.00 in0.0 mm 0.00 in0.0 mm 0.00 in0.0 mm
08:05 AM 39.8°F4.3°C 35.4°F1.9°C 84% 9.1 mph E14.6 kmh E 12.0 mph19.3 kmh 30.30 in1026.1 mb 0.00 in0.0 mm 0.00 in0.0 mm 0.00 in0.0 mm
08:04 AM 39.9°F4.4°C 35.5°F1.9°C 84% 9.5 mph E15.3 kmh E 12.0 mph19.3 kmh 30.30 in1026.1 mb 0.00 in0.0 mm 0.00 in0.0 mm 0.00 in0.0 mm
08:03 AM 39.8°F4.3°C 35.4°F1.9°C 84% 9.8 mph E15.8 kmh E 12.0 mph19.3 kmh 30.30 in1026.1 mb 0.00 in0.0 mm 0.00 in0.0 mm 0.00 in0.0 mm
08:02 AM 39.8°F4.3°C 35.4°F1.9°C 84% 9.3 mph E15.0 kmh E 16.0 mph25.7 kmh 30.30 in1026.1 mb 0.00 in0.0 mm 0.00 in0.0 mm 0.00 in0.0 mm
08:01 AM 39.8°F4.3°C 35.4°F1.9°C 84% 13.0 mph E20.9 kmh E 16.0 mph25.7 kmh 30.30 in1026.1 mb 0.00 in0.0 mm 0.00 in0.0 mm 0.00 in0.0 mm
08:00 AM 39.8°F4.3°C 35.4°F1.9°C 84% 11.3 mph E18.2 kmh E 16.0 mph25.7 kmh 30.30 in1026.1 mb 0.00 in0.0 mm 0.00 in0.0 mm 0.00 in0.0 mm
07:59 AM 39.8°F4.3°C 35.7°F2.1°C 85% 11.7 mph E18.8 kmh E 19.0 mph30.6 kmh 30.30 in1026.1 mb 0.00 in0.0 mm 0.00 in0.0 mm 0.00 in0.0 mm
07:58 AM 39.8°F4.3°C 35.7°F2.1°C 85% 14.3 mph E23.0 kmh E 19.0 mph30.6 kmh 30.30 in1026.1 mb 0.00 in0.0 mm 0.00 in0.0 mm 0.00 in0.0 mm
07:57 AM 39.7°F4.3°C 35.6°F2.0°C 85% 13.7 mph E22.0 kmh E 19.0 mph30.6 kmh 30.30 in1026.1 mb 0.00 in0.0 mm 0.00 in0.0 mm 0.00 in0.0 mm
07:56 AM 39.7°F4.3°C 35.6°F2.0°C 85% 10.2 mph E16.4 kmh E 14.0 mph22.5 kmh 30.30 in1026.1 mb 0.00 in0.0 mm 0.00 in0.0 mm 0.00 in0.0 mm
07:55 AM 39.7°F4.3°C 35.6°F2.0°C 85% 9.9 mph E15.9 kmh E 15.0 mph24.1 kmh 30.30 in1026.1 mb 0.00 in0.0 mm 0.00 in0.0 mm 0.00 in0.0 mm
07:54 AM 39.7°F4.3°C 35.6°F2.0°C 85% 11.3 mph E18.2 kmh E 16.0 mph25.7 kmh 30.30 in1026.1 mb 0.00 in0.0 mm 0.00 in0.0 mm 0.00 in0.0 mm
07:53 AM 39.7°F4.3°C 35.6°F2.0°C 85% 12.2 mph E19.6 kmh E 16.0 mph25.7 kmh 30.30 in1026.1 mb 0.00 in0.0 mm 0.00 in0.0 mm 0.00 in0.0 mm
07:52 AM 39.7°F4.3°C 35.6°F2.0°C 85% 10.1 mph E16.3 kmh E 14.0 mph22.5 kmh 30.30 in1026.1 mb 0.00 in0.0 mm 0.00 in0.0 mm 0.00 in0.0 mm
07:51 AM 39.7°F4.3°C 35.6°F2.0°C 85% 10.8 mph E17.4 kmh E 14.0 mph22.5 kmh 30.30 in1026.1 mb 0.00 in0.0 mm 0.00 in0.0 mm 0.00 in0.0 mm
07:50 AM 39.7°F4.3°C 35.6°F2.0°C 85% 8.3 mph E13.4 kmh E 14.0 mph22.5 kmh 30.30 in1026.1 mb 0.00 in0.0 mm 0.00 in0.0 mm 0.00 in0.0 mm
07:49 AM 39.7°F4.3°C 35.6°F2.0°C 85% 11.2 mph E18.0 kmh E 18.0 mph29.0 kmh 30.30 in1026.1 mb 0.00 in0.0 mm 0.00 in0.0 mm 0.00 in0.0 mm
07:48 AM 39.7°F4.3°C 35.6°F2.0°C 85% 14.1 mph E22.7 kmh E 18.0 mph29.0 kmh 30.29 in1025.7 mb 0.00 in0.0 mm 0.00 in0.0 mm 0.00 in0.0 mm
07:47 AM 39.7°F4.3°C 35.6°F2.0°C 85% 11.2 mph E18.0 kmh E 16.0 mph25.7 kmh 30.30 in1026.1 mb 0.00 in0.0 mm 0.00 in0.0 mm 0.00 in0.0 mm
07:46 AM 39.7°F4.3°C 35.6°F2.0°C 85% 10.4 mph E16.7 kmh E 14.0 mph22.5 kmh 30.29 in1025.7 mb 0.00 in0.0 mm 0.00 in0.0 mm 0.00 in0.0 mm
07:45 AM 39.7°F4.3°C 35.6°F2.0°C 85% 10.6 mph E17.1 kmh E 18.0 mph29.0 kmh 30.29 in1025.7 mb 0.00 in0.0 mm 0.00 in0.0 mm 0.00 in0.0 mm
07:44 AM 39.7°F4.3°C 35.6°F2.0°C 85% 13.6 mph E21.9 kmh E 19.0 mph30.6 kmh 30.29 in1025.7 mb 0.00 in0.0 mm 0.00 in0.0 mm 0.00 in0.0 mm
07:43 AM 39.7°F4.3°C 35.6°F2.0°C 85% 16.4 mph E26.4 kmh E 19.0 mph30.6 kmh 30.29 in1025.7 mb 0.00 in0.0 mm 0.00 in0.0 mm 0.00 in0.0 mm
07:42 AM 39.7°F4.3°C 35.6°F2.0°C 85% 11.2 mph E18.0 kmh E 18.0 mph29.0 kmh 30.29 in1025.7 mb 0.00 in0.0 mm 0.00 in0.0 mm 0.00 in0.0 mm
07:41 AM 39.6°F4.2°C 35.5°F1.9°C 85% 12.0 mph E19.3 kmh E 18.0 mph29.0 kmh 30.29 in1025.7 mb 0.00 in0.0 mm 0.00 in0.0 mm 0.00 in0.0 mm
07:40 AM 39.6°F4.2°C 35.5°F1.9°C 85% 12.5 mph E20.1 kmh E 18.0 mph29.0 kmh 30.29 in1025.7 mb 0.00 in0.0 mm 0.00 in0.0 mm 0.00 in0.0 mm
07:39 AM 39.6°F4.2°C 35.5°F1.9°C 85% 12.4 mph E20.0 kmh E 17.0 mph27.4 kmh 30.29 in1025.7 mb 0.00 in0.0 mm 0.00 in0.0 mm 0.00 in0.0 mm
07:38 AM 39.6°F4.2°C 35.5°F1.9°C 85% 10.3 mph E16.6 kmh E 14.0 mph22.5 kmh 30.29 in1025.7 mb 0.00 in0.0 mm 0.00 in0.0 mm 0.00 in0.0 mm
07:37 AM 39.6°F4.2°C 35.5°F1.9°C 85% 10.3 mph E16.6 kmh E 16.0 mph25.7 kmh 30.29 in1025.7 mb 0.00 in0.0 mm 0.00 in0.0 mm 0.00 in0.0 mm
07:36 AM 39.6°F4.2°C 35.5°F1.9°C 85% 13.3 mph E21.4 kmh E 16.0 mph25.7 kmh 30.29 in1025.7 mb 0.00 in0.0 mm 0.00 in0.0 mm 0.00 in0.0 mm
07:35 AM 39.6°F4.2°C 35.5°F1.9°C 85% 11.5 mph E18.5 kmh E 17.0 mph27.4 kmh 30.29 in1025.7 mb 0.00 in0.0 mm 0.00 in0.0 mm 0.00 in0.0 mm
07:34 AM 39.6°F4.2°C 35.5°F1.9°C 85% 10.7 mph E17.2 kmh E 17.0 mph27.4 kmh 30.29 in1025.7 mb 0.00 in0.0 mm 0.00 in0.0 mm 0.00 in0.0 mm
07:33 AM 39.6°F4.2°C 35.5°F1.9°C 85% 11.1 mph E17.9 kmh E 18.0 mph29.0 kmh 30.29 in1025.7 mb 0.00 in0.0 mm 0.00 in0.0 mm 0.00 in0.0 mm
07:32 AM 39.6°F4.2°C 35.5°F1.9°C 85% 14.8 mph E23.8 kmh E 18.0 mph29.0 kmh 30.29 in1025.7 mb 0.00 in0.0 mm 0.00 in0.0 mm 0.00 in0.0 mm
07:31 AM 39.5°F4.2°C 35.4°F1.9°C 85% 13.5 mph E21.7 kmh E 18.0 mph29.0 kmh 30.29 in1025.7 mb 0.00 in0.0 mm 0.00 in0.0 mm 0.00 in0.0 mm
07:30 AM 39.5°F4.2°C 35.7°F2.1°C 86% 12.9 mph E20.8 kmh E 18.0 mph29.0 kmh 30.29 in1025.7 mb 0.00 in0.0 mm 0.00 in0.0 mm 0.00 in0.0 mm
07:29 AM 39.5°F4.2°C 35.7°F2.1°C 86% 12.8 mph E20.6 kmh E 16.0 mph25.7 kmh 30.29 in1025.7 mb 0.00 in0.0 mm 0.00 in0.0 mm 0.00 in0.0 mm
07:28 AM 39.5°F4.2°C 35.4°F1.9°C 85% 10.6 mph E17.1 kmh E 17.0 mph27.4 kmh 30.29 in1025.7 mb 0.00 in0.0 mm 0.00 in0.0 mm 0.00 in0.0 mm
07:27 AM 39.5°F4.2°C 35.7°F2.1°C 86% 11.5 mph E18.5 kmh E 17.0 mph27.4 kmh 30.29 in1025.7 mb 0.00 in0.0 mm 0.00 in0.0 mm 0.00 in0.0 mm
07:26 AM 39.5°F4.2°C 35.7°F2.1°C 86% 12.0 mph E19.3 kmh E 16.0 mph25.7 kmh 30.28 in1025.4 mb 0.00 in0.0 mm 0.00 in0.0 mm 0.00 in0.0 mm
07:25 AM 39.5°F4.2°C 35.7°F2.1°C 86% 13.6 mph E21.9 kmh E 17.0 mph27.4 kmh 30.28 in1025.4 mb 0.00 in0.0 mm 0.00 in0.0 mm 0.00 in0.0 mm
07:24 AM 39.5°F4.2°C 35.7°F2.1°C 86% 13.4 mph E21.6 kmh E 18.0 mph29.0 kmh 30.28 in1025.4 mb 0.00 in0.0 mm 0.00 in0.0 mm 0.00 in0.0 mm
07:23 AM 39.5°F4.2°C 35.7°F2.1°C 86% 11.1 mph E17.9 kmh E 18.0 mph29.0 kmh 30.28 in1025.4 mb 0.00 in0.0 mm 0.00 in0.0 mm 0.00 in0.0 mm
07:22 AM 39.5°F4.2°C 35.7°F2.1°C 86% 12.7 mph E20.4 kmh E 17.0 mph27.4 kmh 30.29 in1025.7 mb 0.00 in0.0 mm 0.00 in0.0 mm 0.00 in0.0 mm
07:21 AM 39.5°F4.2°C 35.7°F2.1°C 86% 12.4 mph E20.0 kmh E 15.0 mph24.1 kmh 30.28 in1025.4 mb 0.00 in0.0 mm 0.00 in0.0 mm 0.00 in0.0 mm
07:20 AM 39.5°F4.2°C 35.7°F2.1°C 86% 11.6 mph E18.7 kmh E 17.0 mph27.4 kmh 30.28 in1025.4 mb 0.00 in0.0 mm 0.00 in0.0 mm 0.00 in0.0 mm
07:19 AM 39.5°F4.2°C 35.7°F2.1°C 86% 10.8 mph E17.4 kmh E 17.0 mph27.4 kmh 30.28 in1025.4 mb 0.00 in0.0 mm 0.00 in0.0 mm 0.00 in0.0 mm
07:18 AM 39.5°F4.2°C 35.7°F2.1°C 86% 11.9 mph E19.2 kmh E 19.0 mph30.6 kmh 30.28 in1025.4 mb 0.00 in0.0 mm 0.00 in0.0 mm 0.00 in0.0 mm
07:17 AM 39.5°F4.2°C 35.7°F2.1°C 86% 14.0 mph E22.5 kmh E 20.0 mph32.2 kmh 30.28 in1025.4 mb 0.00 in0.0 mm 0.00 in0.0 mm 0.00 in0.0 mm
07:16 AM 39.4°F4.1°C 35.6°F2.0°C 86% 16.8 mph E27.0 kmh E 20.0 mph32.2 kmh 30.28 in1025.4 mb 0.00 in0.0 mm 0.00 in0.0 mm 0.00 in0.0 mm
07:15 AM 39.4°F4.1°C 35.6°F2.0°C 86% 14.3 mph E23.0 kmh E 19.0 mph30.6 kmh 30.28 in1025.4 mb 0.00 in0.0 mm 0.00 in0.0 mm 0.00 in0.0 mm
07:14 AM 39.4°F4.1°C 35.6°F2.0°C 86% 12.6 mph E20.3 kmh E 15.0 mph24.1 kmh 30.28 in1025.4 mb 0.00 in0.0 mm 0.00 in0.0 mm 0.00 in0.0 mm
07:13 AM 39.4°F4.1°C 35.6°F2.0°C 86% 11.2 mph E18.0 kmh E 17.0 mph27.4 kmh 30.28 in1025.4 mb 0.00 in0.0 mm 0.00 in0.0 mm 0.00 in0.0 mm
07:12 AM 39.4°F4.1°C 35.6°F2.0°C 86% 12.7 mph E20.4 kmh E 18.0 mph29.0 kmh 30.28 in1025.4 mb 0.00 in0.0 mm 0.00 in0.0 mm 0.00 in0.0 mm
07:11 AM 39.3°F4.1°C 35.8°F2.1°C 87% 12.0 mph E19.3 kmh E 18.0 mph29.0 kmh 30.28 in1025.4 mb 0.00 in0.0 mm 0.00 in0.0 mm 0.00 in0.0 mm
07:10 AM 39.3°F4.1°C 35.8°F2.1°C 87% 14.4 mph E23.2 kmh E 24.0 mph38.6 kmh 30.28 in1025.4 mb 0.00 in0.0 mm 0.00 in0.0 mm 0.00 in0.0 mm
07:09 AM 39.3°F4.1°C 35.8°F2.1°C 87% 16.5 mph E26.6 kmh E 24.0 mph38.6 kmh 30.28 in1025.4 mb 0.00 in0.0 mm 0.00 in0.0 mm 0.00 in0.0 mm
07:08 AM 39.3°F4.1°C 35.8°F2.1°C 87% 12.3 mph E19.8 kmh E 17.0 mph27.4 kmh 30.28 in1025.4 mb 0.00 in0.0 mm 0.00 in0.0 mm 0.00 in0.0 mm
07:07 AM 39.4°F4.1°C 35.6°F2.0°C 86% 13.5 mph E21.7 kmh E 17.0 mph27.4 kmh 30.28 in1025.4 mb 0.00 in0.0 mm 0.00 in0.0 mm 0.00 in0.0 mm
07:06 AM 39.3°F4.1°C 35.5°F1.9°C 86% 11.7 mph E18.8 kmh E 17.0 mph27.4 kmh 30.28 in1025.4 mb 0.00 in0.0 mm 0.00 in0.0 mm 0.00 in0.0 mm
07:05 AM 39.3°F4.1°C 35.8°F2.1°C 87% 13.3 mph E21.4 kmh E 17.0 mph27.4 kmh 30.28 in1025.4 mb 0.00 in0.0 mm 0.00 in0.0 mm 0.00 in0.0 mm
07:04 AM 39.3°F4.1°C 35.8°F2.1°C 87% 13.2 mph E21.2 kmh E 16.0 mph25.7 kmh 30.28 in1025.4 mb 0.00 in0.0 mm 0.00 in0.0 mm 0.00 in0.0 mm
07:03 AM 39.3°F4.1°C 35.8°F2.1°C 87% 12.2 mph E19.6 kmh E 16.0 mph25.7 kmh 30.28 in1025.4 mb 0.00 in0.0 mm 0.00 in0.0 mm 0.00 in0.0 mm
07:02 AM 39.3°F4.1°C 35.8°F2.1°C 87% 12.5 mph E20.1 kmh E 16.0 mph25.7 kmh 30.28 in1025.4 mb 0.00 in0.0 mm 0.00 in0.0 mm 0.00 in0.0 mm
07:01 AM 39.3°F4.1°C 35.8°F2.1°C 87% 12.3 mph E19.8 kmh E 16.0 mph25.7 kmh 30.28 in1025.4 mb 0.00 in0.0 mm 0.00 in0.0 mm 0.00 in0.0 mm
07:00 AM 39.2°F4.0°C 35.7°F2.1°C 87% 11.8 mph E19.0 kmh E 16.0 mph25.7 kmh 30.28 in1025.4 mb 0.00 in0.0 mm 0.00 in0.0 mm 0.00 in0.0 mm
06:59 AM 39.2°F4.0°C 35.7°F2.1°C 87% 13.3 mph E21.4 kmh E 16.0 mph25.7 kmh 30.28 in1025.4 mb 0.00 in0.0 mm 0.00 in0.0 mm 0.00 in0.0 mm
06:58 AM 39.2°F4.0°C 35.7°F2.1°C 87% 14.8 mph E23.8 kmh E 19.0 mph30.6 kmh 30.28 in1025.4 mb 0.00 in0.0 mm 0.00 in0.0 mm 0.00 in0.0 mm
06:57 AM 39.2°F4.0°C 35.7°F2.1°C 87% 13.5 mph E21.7 kmh E 19.0 mph30.6 kmh 30.28 in1025.4 mb 0.00 in0.0 mm 0.00 in0.0 mm 0.00 in0.0 mm
06:56 AM 39.2°F4.0°C 35.7°F2.1°C 87% 12.3 mph E19.8 kmh E 16.0 mph25.7 kmh 30.28 in1025.4 mb 0.00 in0.0 mm 0.00 in0.0 mm 0.00 in0.0 mm
06:55 AM 39.2°F4.0°C 35.4°F1.9°C 86% 13.4 mph E21.6 kmh E 17.0 mph27.4 kmh 30.28 in1025.4 mb 0.00 in0.0 mm 0.00 in0.0 mm 0.00 in0.0 mm
06:54 AM 39.2°F4.0°C 35.4°F1.9°C 86% 13.3 mph E21.4 kmh E 17.0 mph27.4 kmh 30.28 in1025.4 mb 0.00 in0.0 mm 0.00 in0.0 mm 0.00 in0.0 mm
06:53 AM 39.1°F3.9°C 35.3°F1.8°C 86% 13.3 mph E21.4 kmh E 18.0 mph29.0 kmh 30.28 in1025.4 mb 0.00 in0.0 mm 0.00 in0.0 mm 0.00 in0.0 mm
06:52 AM 39.1°F3.9°C 35.3°F1.8°C 86% 14.7 mph E23.7 kmh E 18.0 mph29.0 kmh 30.28 in1025.4 mb 0.00 in0.0 mm 0.00 in0.0 mm 0.00 in0.0 mm
06:51 AM 39.1°F3.9°C 35.3°F1.8°C 86% 9.9 mph E15.9 kmh E 17.0 mph27.4 kmh 30.28 in1025.4 mb 0.00 in0.0 mm 0.00 in0.0 mm 0.00 in0.0 mm
06:50 AM 39.1°F3.9°C 35.3°F1.8°C 86% 9.6 mph E15.4 kmh E 18.0 mph29.0 kmh 30.28 in1025.4 mb 0.00 in0.0 mm 0.00 in0.0 mm 0.00 in0.0 mm
06:49 AM 39.1°F3.9°C 35.3°F1.8°C 86% 10.3 mph E16.6 kmh E 18.0 mph29.0 kmh 30.28 in1025.4 mb 0.00 in0.0 mm 0.00 in0.0 mm 0.00 in0.0 mm
06:48 AM 39.1°F3.9°C 35.3°F1.8°C 86% 14.6 mph E23.5 kmh E 17.0 mph27.4 kmh 30.28 in1025.4 mb 0.00 in0.0 mm 0.00 in0.0 mm 0.00 in0.0 mm
06:47 AM 39.1°F3.9°C 35.3°F1.8°C 86% 12.5 mph E20.1 kmh E 17.0 mph27.4 kmh 30.28 in1025.4 mb 0.00 in0.0 mm 0.00 in0.0 mm 0.00 in0.0 mm
06:46 AM 39.1°F3.9°C 35.3°F1.8°C 86% 11.6 mph E18.7 kmh E 19.0 mph30.6 kmh 30.28 in1025.4 mb 0.00 in0.0 mm 0.00 in0.0 mm 0.00 in0.0 mm
06:45 AM 39.1°F3.9°C 35.3°F1.8°C 86% 16.5 mph E26.6 kmh E 19.0 mph30.6 kmh 30.28 in1025.4 mb 0.00 in0.0 mm 0.00 in0.0 mm 0.00 in0.0 mm
06:44 AM 39.0°F3.9°C 35.2°F1.8°C 86% 13.1 mph E21.1 kmh E 18.0 mph29.0 kmh 30.28 in1025.4 mb 0.00 in0.0 mm 0.00 in0.0 mm 0.00 in0.0 mm
06:43 AM 39.1°F3.9°C 35.3°F1.8°C 86% 9.3 mph E15.0 kmh E 13.0 mph20.9 kmh 30.28 in1025.4 mb 0.00 in0.0 mm 0.00 in0.0 mm 0.00 in0.0 mm
06:42 AM 39.1°F3.9°C 35.3°F1.8°C 86% 11.1 mph E17.9 kmh E 19.0 mph30.6 kmh 30.28 in1025.4 mb 0.00 in0.0 mm 0.00 in0.0 mm 0.00 in0.0 mm
06:41 AM 39.0°F3.9°C 35.2°F1.8°C 86% 14.1 mph E22.7 kmh E 19.0 mph30.6 kmh 30.28 in1025.4 mb 0.00 in0.0 mm 0.00 in0.0 mm 0.00 in0.0 mm
06:40 AM 39.0°F3.9°C 35.2°F1.8°C 86% 13.3 mph E21.4 kmh E 18.0 mph29.0 kmh 30.28 in1025.4 mb 0.00 in0.0 mm 0.00 in0.0 mm 0.00 in0.0 mm
06:39 AM 39.0°F3.9°C 35.5°F1.9°C 87% 13.1 mph E21.1 kmh E 18.0 mph29.0 kmh 30.28 in1025.4 mb 0.00 in0.0 mm 0.00 in0.0 mm 0.00 in0.0 mm
06:38 AM 39.0°F3.9°C 35.5°F1.9°C 87% 14.7 mph E23.7 kmh E 23.0 mph37.0 kmh 30.28 in1025.4 mb 0.00 in0.0 mm 0.00 in0.0 mm 0.00 in0.0 mm
06:37 AM 39.0°F3.9°C 35.5°F1.9°C 87% 16.4 mph E26.4 kmh E 23.0 mph37.0 kmh 30.28 in1025.4 mb 0.00 in0.0 mm 0.00 in0.0 mm 0.00 in0.0 mm
06:36 AM 38.9°F3.8°C 35.1°F1.7°C 86% 14.3 mph E23.0 kmh E 18.0 mph29.0 kmh 30.28 in1025.4 mb 0.00 in0.0 mm 0.00 in0.0 mm 0.00 in0.0 mm
06:35 AM 38.9°F3.8°C 35.1°F1.7°C 86% 14.1 mph E22.7 kmh E 20.0 mph32.2 kmh 30.28 in1025.4 mb 0.00 in0.0 mm 0.00 in0.0 mm 0.00 in0.0 mm
06:34 AM 38.9°F3.8°C 35.1°F1.7°C 86% 15.7 mph E25.3 kmh E 20.0 mph32.2 kmh 30.27 in1025.1 mb 0.00 in0.0 mm 0.00 in0.0 mm 0.00 in0.0 mm
06:33 AM 38.9°F3.8°C 35.1°F1.7°C 86% 11.3 mph E18.2 kmh E 18.0 mph29.0 kmh 30.27 in1025.1 mb 0.00 in0.0 mm 0.00 in0.0 mm 0.00 in0.0 mm
06:32 AM 38.9°F3.8°C 35.1°F1.7°C 86% 11.7 mph E18.8 kmh E 16.0 mph25.7 kmh 30.28 in1025.4 mb 0.00 in0.0 mm 0.00 in0.0 mm 0.00 in0.0 mm
06:31 AM 38.9°F3.8°C 35.1°F1.7°C 86% 13.4 mph E21.6 kmh E 18.0 mph29.0 kmh 30.27 in1025.1 mb 0.00 in0.0 mm 0.00 in0.0 mm 0.00 in0.0 mm
06:30 AM 38.9°F3.8°C 35.1°F1.7°C 86% 13.4 mph E21.6 kmh E 18.0 mph29.0 kmh 30.27 in1025.1 mb 0.00 in0.0 mm 0.00 in0.0 mm 0.00 in0.0 mm
06:29 AM 38.9°F3.8°C 35.1°F1.7°C 86% 14.5 mph E23.3 kmh E 22.0 mph35.4 kmh 30.27 in1025.1 mb 0.00 in0.0 mm 0.00 in0.0 mm 0.00 in0.0 mm
06:28 AM 38.9°F3.8°C 35.1°F1.7°C 86% 15.4 mph E24.8 kmh E 22.0 mph35.4 kmh 30.27 in1025.1 mb 0.00 in0.0 mm 0.00 in0.0 mm 0.00 in0.0 mm
06:27 AM 38.9°F3.8°C 35.1°F1.7°C 86% 15.5 mph E24.9 kmh E 18.0 mph29.0 kmh 30.27 in1025.1 mb 0.00 in0.0 mm 0.00 in0.0 mm 0.00 in0.0 mm
06:26 AM 38.9°F3.8°C 35.1°F1.7°C 86% 11.5 mph E18.5 kmh E 16.0 mph25.7 kmh 30.27 in1025.1 mb 0.00 in0.0 mm 0.00 in0.0 mm 0.00 in0.0 mm
06:25 AM 38.9°F3.8°C 35.1°F1.7°C 86% 12.3 mph E19.8 kmh E 16.0 mph25.7 kmh 30.27 in1025.1 mb 0.00 in0.0 mm 0.00 in0.0 mm 0.00 in0.0 mm
06:24 AM 38.9°F3.8°C 35.1°F1.7°C 86% 10.7 mph E17.2 kmh E 17.0 mph27.4 kmh 30.27 in1025.1 mb 0.00 in0.0 mm 0.00 in0.0 mm 0.00 in0.0 mm
06:23 AM 38.9°F3.8°C 35.1°F1.7°C 86% 11.9 mph E19.2 kmh E 18.0 mph29.0 kmh 30.27 in1025.1 mb 0.00 in0.0 mm 0.00 in0.0 mm 0.00 in0.0 mm
06:22 AM 38.9°F3.8°C 35.1°F1.7°C 86% 12.9 mph E20.8 kmh E 18.0 mph29.0 kmh 30.27 in1025.1 mb 0.00 in0.0 mm 0.00 in0.0 mm 0.00 in0.0 mm
06:21 AM 39.0°F3.9°C 35.2°F1.8°C 86% 14.1 mph E22.7 kmh E 20.0 mph32.2 kmh 30.27 in1025.1 mb 0.00 in0.0 mm 0.00 in0.0 mm 0.00 in0.0 mm
06:20 AM 39.0°F3.9°C 35.2°F1.8°C 86% 14.6 mph E23.5 kmh E 20.0 mph32.2 kmh 30.27 in1025.1 mb 0.00 in0.0 mm 0.00 in0.0 mm 0.00 in0.0 mm
06:19 AM 39.0°F3.9°C 35.2°F1.8°C 86% 12.5 mph E20.1 kmh E 19.0 mph30.6 kmh 30.27 in1025.1 mb 0.00 in0.0 mm 0.00 in0.0 mm 0.00 in0.0 mm
06:18 AM 39.0°F3.9°C 35.2°F1.8°C 86% 13.0 mph E20.9 kmh E 22.0 mph35.4 kmh 30.27 in1025.1 mb 0.00 in0.0 mm 0.00 in0.0 mm 0.00 in0.0 mm
06:17 AM 39.0°F3.9°C 35.2°F1.8°C 86% 16.5 mph E26.6 kmh E 24.0 mph38.6 kmh 30.27 in1025.1 mb 0.00 in0.0 mm 0.00 in0.0 mm 0.00 in0.0 mm
06:16 AM 39.0°F3.9°C 35.2°F1.8°C 86% 15.0 mph E24.1 kmh E 24.0 mph38.6 kmh 30.27 in1025.1 mb 0.00 in0.0 mm 0.00 in0.0 mm 0.00 in0.0 mm
06:15 AM 39.0°F3.9°C 35.2°F1.8°C 86% 13.6 mph E21.9 kmh E 21.0 mph33.8 kmh 30.27 in1025.1 mb 0.00 in0.0 mm 0.00 in0.0 mm 0.00 in0.0 mm
06:14 AM 39.1°F3.9°C 35.3°F1.8°C 86% 16.1 mph E25.9 kmh E 21.0 mph33.8 kmh 30.27 in1025.1 mb 0.00 in0.0 mm 0.00 in0.0 mm 0.00 in0.0 mm
06:13 AM 39.1°F3.9°C 35.3°F1.8°C 86% 16.0 mph E25.7 kmh E 21.0 mph33.8 kmh 30.27 in1025.1 mb 0.00 in0.0 mm 0.00 in0.0 mm 0.00 in0.0 mm
06:12 AM 39.1°F3.9°C 35.3°F1.8°C 86% 13.5 mph E21.7 kmh E 19.0 mph30.6 kmh 30.27 in1025.1 mb 0.00 in0.0 mm 0.00 in0.0 mm 0.00 in0.0 mm
06:11 AM 39.2°F4.0°C 35.4°F1.9°C 86% 14.6 mph E23.5 kmh E 18.0 mph29.0 kmh 30.27 in1025.1 mb 0.00 in0.0 mm 0.00 in0.0 mm 0.00 in0.0 mm
06:10 AM 39.2°F4.0°C 35.1°F1.7°C 85% 13.2 mph E21.2 kmh E 18.0 mph29.0 kmh 30.27 in1025.1 mb 0.00 in0.0 mm 0.00 in0.0 mm 0.00 in0.0 mm
06:09 AM 39.2°F4.0°C 35.1°F1.7°C 85% 14.7 mph E23.7 kmh E 20.0 mph32.2 kmh 30.27 in1025.1 mb 0.00 in0.0 mm 0.00 in0.0 mm 0.00 in0.0 mm
06:08 AM 39.3°F4.1°C 35.2°F1.8°C 85% 17.1 mph E27.5 kmh E 20.0 mph32.2 kmh 30.27 in1025.1 mb 0.00 in0.0 mm 0.00 in0.0 mm 0.00 in0.0 mm
06:07 AM 39.3°F4.1°C 35.2°F1.8°C 85% 13.4 mph E21.6 kmh E 18.0 mph29.0 kmh 30.27 in1025.1 mb 0.00 in0.0 mm 0.00 in0.0 mm 0.00 in0.0 mm
06:06 AM 39.3°F4.1°C 35.2°F1.8°C 85% 12.6 mph E20.3 kmh E 17.0 mph27.4 kmh 30.27 in1025.1 mb 0.00 in0.0 mm 0.00 in0.0 mm 0.00 in0.0 mm
06:05 AM 39.3°F4.1°C 35.2°F1.8°C 85% 12.9 mph E20.8 kmh E 18.0 mph29.0 kmh 30.27 in1025.1 mb 0.00 in0.0 mm 0.00 in0.0 mm 0.00 in0.0 mm
06:04 AM 39.4°F4.1°C 35.3°F1.8°C 85% 13.0 mph E20.9 kmh E 24.0 mph38.6 kmh 30.26 in1024.7 mb 0.00 in0.0 mm 0.00 in0.0 mm 0.00 in0.0 mm
06:03 AM 39.4°F4.1°C 35.3°F1.8°C 85% 15.4 mph E24.8 kmh E 24.0 mph38.6 kmh 30.26 in1024.7 mb 0.00 in0.0 mm 0.00 in0.0 mm 0.00 in0.0 mm
06:02 AM 39.4°F4.1°C 35.3°F1.8°C 85% 15.4 mph E24.8 kmh E 19.0 mph30.6 kmh 30.27 in1025.1 mb 0.00 in0.0 mm 0.00 in0.0 mm 0.00 in0.0 mm
06:01 AM 39.4°F4.1°C 35.3°F1.8°C 85% 14.6 mph E23.5 kmh E 19.0 mph30.6 kmh 30.27 in1025.1 mb 0.00 in0.0 mm 0.00 in0.0 mm 0.00 in0.0 mm
06:00 AM 39.5°F4.2°C 35.4°F1.9°C 85% 11.9 mph E19.2 kmh E 23.0 mph37.0 kmh 30.27 in1025.1 mb 0.00 in0.0 mm 0.00 in0.0 mm 0.00 in0.0 mm
05:59 AM 39.5°F4.2°C 35.4°F1.9°C 85% 16.0 mph E25.7 kmh E 23.0 mph37.0 kmh 30.27 in1025.1 mb 0.00 in0.0 mm 0.00 in0.0 mm 0.00 in0.0 mm
05:58 AM 39.5°F4.2°C 35.4°F1.9°C 85% 15.1 mph E24.3 kmh E 22.0 mph35.4 kmh 30.27 in1025.1 mb 0.00 in0.0 mm 0.00 in0.0 mm 0.00 in0.0 mm
05:57 AM 39.5°F4.2°C 35.4°F1.9°C 85% 15.4 mph E24.8 kmh E 24.0 mph38.6 kmh 30.27 in1025.1 mb 0.00 in0.0 mm 0.00 in0.0 mm 0.00 in0.0 mm
05:56 AM 39.6°F4.2°C 35.5°F1.9°C 85% 18.5 mph E29.8 kmh E 26.0 mph41.8 kmh 30.27 in1025.1 mb 0.00 in0.0 mm 0.00 in0.0 mm 0.00 in0.0 mm
05:55 AM 39.6°F4.2°C 35.5°F1.9°C 85% 18.2 mph E29.3 kmh E 26.0 mph41.8 kmh 30.27 in1025.1 mb 0.00 in0.0 mm 0.00 in0.0 mm 0.00 in0.0 mm
05:54 AM 39.5°F4.2°C 35.7°F2.1°C 86% 16.6 mph E26.7 kmh E 29.0 mph46.7 kmh 30.27 in1025.1 mb 0.00 in0.0 mm 0.00 in0.0 mm 0.00 in0.0 mm
05:53 AM 39.5°F4.2°C 35.7°F2.1°C 86% 19.3 mph E31.1 kmh E 29.0 mph46.7 kmh 30.27 in1025.1 mb 0.00 in0.0 mm 0.00 in0.0 mm 0.00 in0.0 mm
05:52 AM 39.5°F4.2°C 35.7°F2.1°C 86% 17.1 mph E27.5 kmh E 26.0 mph41.8 kmh 30.27 in1025.1 mb 0.00 in0.0 mm 0.00 in0.0 mm 0.00 in0.0 mm
05:51 AM 39.5°F4.2°C 35.7°F2.1°C 86% 17.4 mph E28.0 kmh E 26.0 mph41.8 kmh 30.27 in1025.1 mb 0.00 in0.0 mm 0.00 in0.0 mm 0.00 in0.0 mm
05:50 AM 39.6°F4.2°C 35.8°F2.1°C 86% 13.7 mph E22.0 kmh E 21.0 mph33.8 kmh 30.27 in1025.1 mb 0.00 in0.0 mm 0.00 in0.0 mm 0.00 in0.0 mm
05:49 AM 39.6°F4.2°C 35.5°F1.9°C 85% 13.5 mph E21.7 kmh E 21.0 mph33.8 kmh 30.27 in1025.1 mb 0.00 in0.0 mm 0.00 in0.0 mm 0.00 in0.0 mm
05:48 AM 39.6°F4.2°C 35.5°F1.9°C 85% 12.6 mph E20.3 kmh E 19.0 mph30.6 kmh 30.27 in1025.1 mb 0.00 in0.0 mm 0.00 in0.0 mm 0.00 in0.0 mm
05:47 AM 39.7°F4.3°C 35.6°F2.0°C 85% 14.8 mph E23.8 kmh E 20.0 mph32.2 kmh 30.27 in1025.1 mb 0.00 in0.0 mm 0.00 in0.0 mm 0.00 in0.0 mm
05:46 AM 39.7°F4.3°C 35.6°F2.0°C 85% 16.4 mph E26.4 kmh E 20.0 mph32.2 kmh 30.27 in1025.1 mb 0.00 in0.0 mm 0.00 in0.0 mm 0.00 in0.0 mm
05:45 AM 39.7°F4.3°C 35.6°F2.0°C 85% 14.5 mph E23.3 kmh E 20.0 mph32.2 kmh 30.27 in1025.1 mb 0.00 in0.0 mm 0.00 in0.0 mm 0.00 in0.0 mm
05:44 AM 39.7°F4.3°C 35.6°F2.0°C 85% 14.2 mph E22.9 kmh E 17.0 mph27.4 kmh 30.27 in1025.1 mb 0.00 in0.0 mm 0.00 in0.0 mm 0.00 in0.0 mm
05:43 AM 39.7°F4.3°C 35.6°F2.0°C 85% 13.6 mph E21.9 kmh E 21.0 mph33.8 kmh 30.27 in1025.1 mb 0.00 in0.0 mm 0.00 in0.0 mm 0.00 in0.0 mm
05:42 AM 39.7°F4.3°C 35.6°F2.0°C 85% 13.2 mph E21.2 kmh E 21.0 mph33.8 kmh 30.27 in1025.1 mb 0.00 in0.0 mm 0.00 in0.0 mm 0.00 in0.0 mm
05:41 AM 39.7°F4.3°C 35.9°F2.2°C 86% 15.4 mph E24.8 kmh E 25.0 mph40.2 kmh 30.27 in1025.1 mb 0.00 in0.0 mm 0.00 in0.0 mm 0.00 in0.0 mm
05:40 AM 39.6°F4.2°C 35.8°F2.1°C 86% 18.6 mph E29.9 kmh E 26.0 mph41.8 kmh 30.27 in1025.1 mb 0.00 in0.0 mm 0.00 in0.0 mm 0.00 in0.0 mm
05:39 AM 39.6°F4.2°C 35.8°F2.1°C 86% 19.4 mph E31.2 kmh E 26.0 mph41.8 kmh 30.27 in1025.1 mb 0.00 in0.0 mm 0.00 in0.0 mm 0.00 in0.0 mm
05:38 AM 39.6°F4.2°C 35.8°F2.1°C 86% 17.7 mph E28.5 kmh E 24.0 mph38.6 kmh 30.27 in1025.1 mb 0.00 in0.0 mm 0.00 in0.0 mm 0.00 in0.0 mm
05:37 AM 39.6°F4.2°C 35.8°F2.1°C 86% 15.9 mph E25.6 kmh E 24.0 mph38.6 kmh 30.27 in1025.1 mb 0.00 in0.0 mm 0.00 in0.0 mm 0.00 in0.0 mm
05:36 AM 39.6°F4.2°C 35.8°F2.1°C 86% 15.1 mph E24.3 kmh E 19.0 mph30.6 kmh 30.27 in1025.1 mb 0.00 in0.0 mm 0.00 in0.0 mm 0.00 in0.0 mm
05:35 AM 39.5°F4.2°C 35.7°F2.1°C 86% 15.8 mph E25.4 kmh E 20.0 mph32.2 kmh 30.27 in1025.1 mb 0.00 in0.0 mm 0.00 in0.0 mm 0.00 in0.0 mm
05:34 AM 39.4°F4.1°C 35.6°F2.0°C 86% 14.4 mph E23.2 kmh E 20.0 mph32.2 kmh 30.27 in1025.1 mb 0.00 in0.0 mm 0.00 in0.0 mm 0.00 in0.0 mm
05:33 AM 39.4°F4.1°C 35.6°F2.0°C 86% 13.5 mph E21.7 kmh E 19.0 mph30.6 kmh 30.27 in1025.1 mb 0.00 in0.0 mm 0.00 in0.0 mm 0.00 in0.0 mm
05:32 AM 39.4°F4.1°C 35.9°F2.2°C 87% 14.4 mph E23.2 kmh E 18.0 mph29.0 kmh 30.27 in1025.1 mb 0.00 in0.0 mm 0.00 in0.0 mm 0.00 in0.0 mm
05:31 AM 39.3°F4.1°C 35.8°F2.1°C 87% 14.2 mph E22.9 kmh E 21.0 mph33.8 kmh 30.27 in1025.1 mb 0.00 in0.0 mm 0.00 in0.0 mm 0.00 in0.0 mm
05:30 AM 39.4°F4.1°C 35.9°F2.2°C 87% 15.1 mph E24.3 kmh E 21.0 mph33.8 kmh 30.27 in1025.1 mb 0.00 in0.0 mm 0.00 in0.0 mm 0.00 in0.0 mm
05:29 AM 39.3°F4.1°C 35.5°F1.9°C 86% 12.3 mph E19.8 kmh E 15.0 mph24.1 kmh 30.27 in1025.1 mb 0.00 in0.0 mm 0.00 in0.0 mm 0.00 in0.0 mm
05:28 AM 39.3°F4.1°C 35.5°F1.9°C 86% 11.9 mph E19.2 kmh E 16.0 mph25.7 kmh 30.27 in1025.1 mb 0.00 in0.0 mm 0.00 in0.0 mm 0.00 in0.0 mm
05:27 AM 39.3°F4.1°C 35.8°F2.1°C 87% 12.6 mph E20.3 kmh E 17.0 mph27.4 kmh 30.27 in1025.1 mb 0.00 in0.0 mm 0.00 in0.0 mm 0.00 in0.0 mm
05:26 AM 39.3°F4.1°C 35.5°F1.9°C 86% 14.2 mph E22.9 kmh E 18.0 mph29.0 kmh 30.27 in1025.1 mb 0.00 in0.0 mm 0.00 in0.0 mm 0.00 in0.0 mm
05:25 AM 39.3°F4.1°C 35.8°F2.1°C 87% 13.4 mph E21.6 kmh E 19.0 mph30.6 kmh 30.27 in1025.1 mb 0.00 in0.0 mm 0.00 in0.0 mm 0.00 in0.0 mm
05:24 AM 39.3°F4.1°C 35.5°F1.9°C 86% 15.8 mph E25.4 kmh E 19.0 mph30.6 kmh 30.27 in1025.1 mb 0.00 in0.0 mm 0.00 in0.0 mm 0.00 in0.0 mm
05:23 AM 39.3°F4.1°C 35.5°F1.9°C 86% 11.9 mph E19.2 kmh E 17.0 mph27.4 kmh 30.27 in1025.1 mb 0.00 in0.0 mm 0.00 in0.0 mm 0.00 in0.0 mm
05:22 AM 39.3°F4.1°C 35.5°F1.9°C 86% 11.9 mph E19.2 kmh E 17.0 mph27.4 kmh 30.26 in1024.7 mb 0.00 in0.0 mm 0.00 in0.0 mm 0.00 in0.0 mm
05:21 AM 39.3°F4.1°C 35.5°F1.9°C 86% 14.0 mph E22.5 kmh E 24.0 mph38.6 kmh 30.26 in1024.7 mb 0.00 in0.0 mm 0.00 in0.0 mm 0.00 in0.0 mm
05:20 AM 39.2°F4.0°C 35.7°F2.1°C 87% 16.1 mph E25.9 kmh E 25.0 mph40.2 kmh 30.26 in1024.7 mb 0.00 in0.0 mm 0.00 in0.0 mm 0.00 in0.0 mm
05:19 AM 39.3°F4.1°C 35.8°F2.1°C 87% 17.9 mph E28.8 kmh E 25.0 mph40.2 kmh 30.26 in1024.7 mb 0.00 in0.0 mm 0.00 in0.0 mm 0.00 in0.0 mm
05:18 AM 39.3°F4.1°C 35.5°F1.9°C 86% 14.6 mph E23.5 kmh E 21.0 mph33.8 kmh 30.27 in1025.1 mb 0.00 in0.0 mm 0.00 in0.0 mm 0.00 in0.0 mm
05:17 AM 39.3°F4.1°C 35.8°F2.1°C 87% 11.6 mph E18.7 kmh E 17.0 mph27.4 kmh 30.27 in1025.1 mb 0.00 in0.0 mm 0.00 in0.0 mm 0.00 in0.0 mm
05:16 AM 39.3°F4.1°C 35.8°F2.1°C 87% 12.8 mph E20.6 kmh E 17.0 mph27.4 kmh 30.26 in1024.7 mb 0.00 in0.0 mm 0.00 in0.0 mm 0.00 in0.0 mm
05:15 AM 39.3°F4.1°C 35.8°F2.1°C 87% 11.5 mph E18.5 kmh E 15.0 mph24.1 kmh 30.26 in1024.7 mb 0.00 in0.0 mm 0.00 in0.0 mm 0.00 in0.0 mm
05:14 AM 39.3°F4.1°C 35.8°F2.1°C 87% 11.9 mph E19.2 kmh E 19.0 mph30.6 kmh 30.27 in1025.1 mb 0.00 in0.0 mm 0.00 in0.0 mm 0.00 in0.0 mm
05:13 AM 39.3°F4.1°C 35.5°F1.9°C 86% 16.2 mph E26.1 kmh E 22.0 mph35.4 kmh 30.27 in1025.1 mb 0.00 in0.0 mm 0.00 in0.0 mm 0.00 in0.0 mm
05:12 AM 39.3°F4.1°C 35.5°F1.9°C 86% 16.5 mph E26.6 kmh E 22.0 mph35.4 kmh 30.26 in1024.7 mb 0.00 in0.0 mm 0.00 in0.0 mm 0.00 in0.0 mm
05:11 AM 39.3°F4.1°C 35.8°F2.1°C 87% 14.6 mph E23.5 kmh E 20.0 mph32.2 kmh 30.27 in1025.1 mb 0.00 in0.0 mm 0.00 in0.0 mm 0.00 in0.0 mm
05:10 AM 39.3°F4.1°C 35.8°F2.1°C 87% 15.1 mph E24.3 kmh E 19.0 mph30.6 kmh 30.27 in1025.1 mb 0.00 in0.0 mm 0.00 in0.0 mm 0.00 in0.0 mm
05:09 AM 39.3°F4.1°C 35.8°F2.1°C 87% 11.3 mph E18.2 kmh E 14.0 mph22.5 kmh 30.27 in1025.1 mb 0.00 in0.0 mm 0.00 in0.0 mm 0.00 in0.0 mm
05:08 AM 39.3°F4.1°C 35.8°F2.1°C 87% 11.6 mph E18.7 kmh E 22.0 mph35.4 kmh 30.27 in1025.1 mb 0.00 in0.0 mm 0.00 in0.0 mm 0.00 in0.0 mm
05:07 AM 39.3°F4.1°C 35.8°F2.1°C 87% 15.4 mph E24.8 kmh E 24.0 mph38.6 kmh 30.27 in1025.1 mb 0.00 in0.0 mm 0.00 in0.0 mm 0.00 in0.0 mm
05:06 AM 39.3°F4.1°C 35.5°F1.9°C 86% 16.0 mph E25.7 kmh E 24.0 mph38.6 kmh 30.26 in1024.7 mb 0.00 in0.0 mm 0.00 in0.0 mm 0.00 in0.0 mm
05:05 AM 39.4°F4.1°C 35.6°F2.0°C 86% 10.5 mph E16.9 kmh E 17.0 mph27.4 kmh 30.27 in1025.1 mb 0.00 in0.0 mm 0.00 in0.0 mm 0.00 in0.0 mm
05:04 AM 39.4°F4.1°C 35.6°F2.0°C 86% 11.4 mph E18.3 kmh E 15.0 mph24.1 kmh 30.27 in1025.1 mb 0.00 in0.0 mm 0.00 in0.0 mm 0.00 in0.0 mm
05:03 AM 39.4°F4.1°C 35.6°F2.0°C 86% 10.8 mph E17.4 kmh E 16.0 mph25.7 kmh 30.27 in1025.1 mb 0.00 in0.0 mm 0.00 in0.0 mm 0.00 in0.0 mm
05:02 AM 39.4°F4.1°C 35.6°F2.0°C 86% 14.1 mph E22.7 kmh E 16.0 mph25.7 kmh 30.27 in1025.1 mb 0.00 in0.0 mm 0.00 in0.0 mm 0.00 in0.0 mm
05:01 AM 39.4°F4.1°C 35.6°F2.0°C 86% 12.6 mph E20.3 kmh E 21.0 mph33.8 kmh 30.27 in1025.1 mb 0.00 in0.0 mm 0.00 in0.0 mm 0.00 in0.0 mm
05:00 AM 39.4°F4.1°C 35.6°F2.0°C 86% 16.0 mph E25.7 kmh E 21.0 mph33.8 kmh 30.27 in1025.1 mb 0.00 in0.0 mm 0.00 in0.0 mm 0.00 in0.0 mm
04:59 AM 39.4°F4.1°C 35.6°F2.0°C 86% 14.5 mph E23.3 kmh E 19.0 mph30.6 kmh 30.27 in1025.1 mb 0.00 in0.0 mm 0.00 in0.0 mm 0.00 in0.0 mm
04:58 AM 39.5°F4.2°C 35.7°F2.1°C 86% 12.8 mph E20.6 kmh E 19.0 mph30.6 kmh 30.27 in1025.1 mb 0.00 in0.0 mm 0.00 in0.0 mm 0.00 in0.0 mm
04:57 AM 39.5°F4.2°C 35.7°F2.1°C 86% 15.8 mph E25.4 kmh E 19.0 mph30.6 kmh 30.27 in1025.1 mb 0.00 in0.0 mm 0.00 in0.0 mm 0.00 in0.0 mm
04:56 AM 39.5°F4.2°C 35.7°F2.1°C 86% 12.4 mph E20.0 kmh E 17.0 mph27.4 kmh 30.26 in1024.7 mb 0.00 in0.0 mm 0.00 in0.0 mm 0.00 in0.0 mm
04:55 AM 39.5°F4.2°C 35.7°F2.1°C 86% 13.7 mph E22.0 kmh E 17.0 mph27.4 kmh 30.27 in1025.1 mb 0.00 in0.0 mm 0.00 in0.0 mm 0.00 in0.0 mm
04:54 AM 39.5°F4.2°C 35.7°F2.1°C 86% 10.0 mph E16.1 kmh E 17.0 mph27.4 kmh 30.27 in1025.1 mb 0.00 in0.0 mm 0.00 in0.0 mm 0.00 in0.0 mm
04:53 AM 39.5°F4.2°C 35.7°F2.1°C 86% 12.1 mph E19.5 kmh E 17.0 mph27.4 kmh 30.27 in1025.1 mb 0.00 in0.0 mm 0.00 in0.0 mm 0.00 in0.0 mm
04:52 AM 39.6°F4.2°C 35.8°F2.1°C 86% 12.0 mph E19.3 kmh E 17.0 mph27.4 kmh 30.27 in1025.1 mb 0.00 in0.0 mm 0.00 in0.0 mm 0.00 in0.0 mm
04:51 AM 39.5°F4.2°C 35.7°F2.1°C 86% 11.1 mph E17.9 kmh E 14.0 mph22.5 kmh 30.27 in1025.1 mb 0.00 in0.0 mm 0.00 in0.0 mm 0.00 in0.0 mm
04:50 AM 39.5°F4.2°C 35.7°F2.1°C 86% 10.9 mph E17.5 kmh E 13.0 mph20.9 kmh 30.27 in1025.1 mb 0.00 in0.0 mm 0.00 in0.0 mm 0.00 in0.0 mm
04:49 AM 39.6°F4.2°C 35.8°F2.1°C 86% 9.5 mph E15.3 kmh E 15.0 mph24.1 kmh 30.27 in1025.1 mb 0.00 in0.0 mm 0.00 in0.0 mm 0.00 in0.0 mm
04:48 AM 39.5°F4.2°C 35.7°F2.1°C 86% 12.5 mph E20.1 kmh E 15.0 mph24.1 kmh 30.27 in1025.1 mb 0.00 in0.0 mm 0.00 in0.0 mm 0.00 in0.0 mm
04:47 AM 39.5°F4.2°C 35.7°F2.1°C 86% 11.0 mph E17.7 kmh E 18.0 mph29.0 kmh 30.27 in1025.1 mb 0.00 in0.0 mm 0.00 in0.0 mm 0.00 in0.0 mm
04:46 AM 39.5°F4.2°C 35.7°F2.1°C 86% 13.1 mph E21.1 kmh E 18.0 mph29.0 kmh 30.26 in1024.7 mb 0.00 in0.0 mm 0.00 in0.0 mm 0.00 in0.0 mm
04:45 AM 39.5°F4.2°C 35.7°F2.1°C 86% 12.8 mph ENE20.6 kmh ENE 18.0 mph29.0 kmh 30.27 in1025.1 mb 0.00 in0.0 mm 0.00 in0.0 mm 0.00 in0.0 mm
04:44 AM 39.5°F4.2°C 35.7°F2.1°C 86% 9.6 mph E15.4 kmh E 18.0 mph29.0 kmh 30.27 in1025.1 mb 0.00 in0.0 mm 0.00 in0.0 mm 0.00 in0.0 mm
04:43 AM 39.5°F4.2°C 35.7°F2.1°C 86% 12.9 mph E20.8 kmh E 18.0 mph29.0 kmh 30.27 in1025.1 mb 0.00 in0.0 mm 0.00 in0.0 mm 0.00 in0.0 mm
04:42 AM 39.4°F4.1°C 35.6°F2.0°C 86% 12.5 mph E20.1 kmh E 18.0 mph29.0 kmh 30.26 in1024.7 mb 0.00 in0.0 mm 0.00 in0.0 mm 0.00 in0.0 mm
04:41 AM 39.4°F4.1°C 35.6°F2.0°C 86% 11.1 mph ENE17.9 kmh ENE 18.0 mph29.0 kmh 30.27 in1025.1 mb 0.00 in0.0 mm 0.00 in0.0 mm 0.00 in0.0 mm
04:40 AM 39.4°F4.1°C 35.6°F2.0°C 86% 9.1 mph E14.6 kmh E 20.0 mph32.2 kmh 30.26 in1024.7 mb 0.00 in0.0 mm 0.00 in0.0 mm 0.00 in0.0 mm
04:39 AM 39.5°F4.2°C 35.7°F2.1°C 86% 12.4 mph E20.0 kmh E 20.0 mph32.2 kmh 30.27 in1025.1 mb 0.00 in0.0 mm 0.00 in0.0 mm 0.00 in0.0 mm
04:38 AM 39.4°F4.1°C 35.6°F2.0°C 86% 12.8 mph ENE20.6 kmh ENE 17.0 mph27.4 kmh 30.26 in1024.7 mb 0.00 in0.0 mm 0.00 in0.0 mm 0.00 in0.0 mm
04:37 AM 39.4°F4.1°C 35.6°F2.0°C 86% 11.2 mph E18.0 kmh E 16.0 mph25.7 kmh 30.27 in1025.1 mb 0.00 in0.0 mm 0.00 in0.0 mm 0.00 in0.0 mm
04:36 AM 39.4°F4.1°C 35.6°F2.0°C 86% 13.3 mph E21.4 kmh E 16.0 mph25.7 kmh 30.27 in1025.1 mb 0.00 in0.0 mm 0.00 in0.0 mm 0.00 in0.0 mm
04:35 AM 39.4°F4.1°C 35.6°F2.0°C 86% 11.1 mph E17.9 kmh E 14.0 mph22.5 kmh 30.27 in1025.1 mb 0.00 in0.0 mm 0.00 in0.0 mm 0.00 in0.0 mm
04:34 AM 39.4°F4.1°C 35.6°F2.0°C 86% 11.4 mph E18.3 kmh E 14.0 mph22.5 kmh 30.26 in1024.7 mb 0.00 in0.0 mm 0.00 in0.0 mm 0.00 in0.0 mm
04:33 AM 39.4°F4.1°C 35.6°F2.0°C 86% 9.5 mph E15.3 kmh E 19.0 mph30.6 kmh 30.27 in1025.1 mb 0.00 in0.0 mm 0.00 in0.0 mm 0.00 in0.0 mm
04:32 AM 39.4°F4.1°C 35.6°F2.0°C 86% 15.5 mph E24.9 kmh E 19.0 mph30.6 kmh 30.27 in1025.1 mb 0.00 in0.0 mm 0.00 in0.0 mm 0.00 in0.0 mm
04:31 AM 39.4°F4.1°C 35.6°F2.0°C 86% 10.3 mph E16.6 kmh E 15.0 mph24.1 kmh 30.26 in1024.7 mb 0.00 in0.0 mm 0.00 in0.0 mm 0.00 in0.0 mm
04:30 AM 39.4°F4.1°C 35.6°F2.0°C 86% 11.2 mph E18.0 kmh E 18.0 mph29.0 kmh 30.26 in1024.7 mb 0.00 in0.0 mm 0.00 in0.0 mm 0.00 in0.0 mm
04:29 AM 39.4°F4.1°C 35.6°F2.0°C 86% 13.4 mph E21.6 kmh E 18.0 mph29.0 kmh 30.26 in1024.7 mb 0.00 in0.0 mm 0.00 in0.0 mm 0.00 in0.0 mm
04:28 AM 39.4°F4.1°C 35.6°F2.0°C 86% 14.0 mph E22.5 kmh E 17.0 mph27.4 kmh 30.26 in1024.7 mb 0.00 in0.0 mm 0.00 in0.0 mm 0.00 in0.0 mm
04:27 AM 39.3°F4.1°C 35.5°F1.9°C 86% 11.2 mph ENE18.0 kmh ENE 20.0 mph32.2 kmh 30.26 in1024.7 mb 0.00 in0.0 mm 0.00 in0.0 mm 0.00 in0.0 mm
04:26 AM 39.3°F4.1°C 35.5°F1.9°C 86% 14.5 mph E23.3 kmh E 20.0 mph32.2 kmh 30.26 in1024.7 mb 0.00 in0.0 mm 0.00 in0.0 mm 0.00 in0.0 mm
04:25 AM 39.3°F4.1°C 35.5°F1.9°C 86% 12.4 mph ENE20.0 kmh ENE 19.0 mph30.6 kmh 30.26 in1024.7 mb 0.00 in0.0 mm 0.00 in0.0 mm 0.00 in0.0 mm
04:24 AM 39.3°F4.1°C 35.5°F1.9°C 86% 14.4 mph E23.2 kmh E 19.0 mph30.6 kmh 30.26 in1024.7 mb 0.00 in0.0 mm 0.00 in0.0 mm 0.00 in0.0 mm
04:23 AM 39.3°F4.1°C 35.5°F1.9°C 86% 12.8 mph E20.6 kmh E 19.0 mph30.6 kmh 30.26 in1024.7 mb 0.00 in0.0 mm 0.00 in0.0 mm 0.00 in0.0 mm
04:22 AM 39.3°F4.1°C 35.5°F1.9°C 86% 10.2 mph E16.4 kmh E 22.0 mph35.4 kmh 30.26 in1024.7 mb 0.00 in0.0 mm 0.00 in0.0 mm 0.00 in0.0 mm
04:21 AM 39.3°F4.1°C 35.5°F1.9°C 86% 14.2 mph E22.9 kmh E 22.0 mph35.4 kmh 30.26 in1024.7 mb 0.00 in0.0 mm 0.00 in0.0 mm 0.00 in0.0 mm
04:20 AM 39.2°F4.0°C 35.4°F1.9°C 86% 15.0 mph E24.1 kmh E 20.0 mph32.2 kmh 30.26 in1024.7 mb 0.00 in0.0 mm 0.00 in0.0 mm 0.00 in0.0 mm
04:19 AM 39.2°F4.0°C 35.4°F1.9°C 86% 11.5 mph ENE18.5 kmh ENE 19.0 mph30.6 kmh 30.26 in1024.7 mb 0.00 in0.0 mm 0.00 in0.0 mm 0.00 in0.0 mm
04:18 AM 39.2°F4.0°C 35.4°F1.9°C 86% 15.3 mph E24.6 kmh E 19.0 mph30.6 kmh 30.26 in1024.7 mb 0.00 in0.0 mm 0.00 in0.0 mm 0.00 in0.0 mm
04:17 AM 39.2°F4.0°C 35.4°F1.9°C 86% 12.1 mph E19.5 kmh E 16.0 mph25.7 kmh 30.26 in1024.7 mb 0.00 in0.0 mm 0.00 in0.0 mm 0.00 in0.0 mm
04:16 AM 39.2°F4.0°C 35.4°F1.9°C 86% 12.1 mph E19.5 kmh E 17.0 mph27.4 kmh 30.26 in1024.7 mb 0.00 in0.0 mm 0.00 in0.0 mm 0.00 in0.0 mm
04:15 AM 39.1°F3.9°C 35.3°F1.8°C 86% 13.9 mph E22.4 kmh E 17.0 mph27.4 kmh 30.26 in1024.7 mb 0.00 in0.0 mm 0.00 in0.0 mm 0.00 in0.0 mm
04:14 AM 39.1°F3.9°C 35.3°F1.8°C 86% 12.9 mph E20.8 kmh E 18.0 mph29.0 kmh 30.26 in1024.7 mb 0.00 in0.0 mm 0.00 in0.0 mm 0.00 in0.0 mm
04:13 AM 39.0°F3.9°C 35.2°F1.8°C 86% 14.9 mph E24.0 kmh E 18.0 mph29.0 kmh 30.26 in1024.7 mb 0.00 in0.0 mm 0.00 in0.0 mm 0.00 in0.0 mm
04:12 AM 39.1°F3.9°C 35.3°F1.8°C 86% 13.5 mph E21.7 kmh E 18.0 mph29.0 kmh 30.26 in1024.7 mb 0.00 in0.0 mm 0.00 in0.0 mm 0.00 in0.0 mm
04:11 AM 39.0°F3.9°C 35.2°F1.8°C 86% 12.6 mph E20.3 kmh E 19.0 mph30.6 kmh 30.26 in1024.7 mb 0.00 in0.0 mm 0.00 in0.0 mm 0.00 in0.0 mm
04:10 AM 39.0°F3.9°C 35.2°F1.8°C 86% 13.2 mph ENE21.2 kmh ENE 19.0 mph30.6 kmh 30.26 in1024.7 mb 0.00 in0.0 mm 0.00 in0.0 mm 0.00 in0.0 mm
04:09 AM 39.0°F3.9°C 35.2°F1.8°C 86% 13.1 mph E21.1 kmh E 16.0 mph25.7 kmh 30.26 in1024.7 mb 0.00 in0.0 mm 0.00 in0.0 mm 0.00 in0.0 mm
04:08 AM 39.0°F3.9°C 35.2°F1.8°C 86% 11.5 mph ENE18.5 kmh ENE 16.0 mph25.7 kmh 30.26 in1024.7 mb 0.00 in0.0 mm 0.00 in0.0 mm 0.00 in0.0 mm
04:07 AM 39.0°F3.9°C 35.2°F1.8°C 86% 13.7 mph E22.0 kmh E 16.0 mph25.7 kmh 30.26 in1024.7 mb 0.00 in0.0 mm 0.00 in0.0 mm 0.00 in0.0 mm
04:06 AM 38.9°F3.8°C 35.1°F1.7°C 86% 9.8 mph E15.8 kmh E 15.0 mph24.1 kmh 30.26 in1024.7 mb 0.00 in0.0 mm 0.00 in0.0 mm 0.00 in0.0 mm
04:05 AM 39.0°F3.9°C 35.2°F1.8°C 86% 10.9 mph E17.5 kmh E 16.0 mph25.7 kmh 30.26 in1024.7 mb 0.00 in0.0 mm 0.00 in0.0 mm 0.00 in0.0 mm
04:04 AM 39.0°F3.9°C 35.2°F1.8°C 86% 10.4 mph E16.7 kmh E 16.0 mph25.7 kmh 30.26 in1024.7 mb 0.00 in0.0 mm 0.00 in0.0 mm 0.00 in0.0 mm
04:03 AM 39.0°F3.9°C 35.2°F1.8°C 86% 8.7 mph E14.0 kmh E 13.0 mph20.9 kmh 30.26 in1024.7 mb 0.00 in0.0 mm 0.00 in0.0 mm 0.00 in0.0 mm
04:02 AM 39.0°F3.9°C 35.2°F1.8°C 86% 10.1 mph E16.3 kmh E 16.0 mph25.7 kmh 30.26 in1024.7 mb 0.00 in0.0 mm 0.00 in0.0 mm 0.00 in0.0 mm
04:01 AM 39.0°F3.9°C 35.2°F1.8°C 86% 12.8 mph E20.6 kmh E 16.0 mph25.7 kmh 30.26 in1024.7 mb 0.00 in0.0 mm 0.00 in0.0 mm 0.00 in0.0 mm
04:00 AM 39.0°F3.9°C 35.2°F1.8°C 86% 11.0 mph E17.7 kmh E 15.0 mph24.1 kmh 30.26 in1024.7 mb 0.00 in0.0 mm 0.00 in0.0 mm 0.00 in0.0 mm
03:59 AM 39.0°F3.9°C 35.2°F1.8°C 86% 12.6 mph E20.3 kmh E 15.0 mph24.1 kmh 30.26 in1024.7 mb 0.00 in0.0 mm 0.00 in0.0 mm 0.00 in0.0 mm
03:58 AM 39.0°F3.9°C 35.2°F1.8°C 86% 10.2 mph E16.4 kmh E 14.0 mph22.5 kmh 30.26 in1024.7 mb 0.00 in0.0 mm 0.00 in0.0 mm 0.00 in0.0 mm
03:57 AM 38.9°F3.8°C 35.1°F1.7°C 86% 8.8 mph E14.2 kmh E 12.0 mph19.3 kmh 30.26 in1024.7 mb 0.00 in0.0 mm 0.00 in0.0 mm 0.00 in0.0 mm
03:56 AM 38.9°F3.8°C 35.1°F1.7°C 86% 9.0 mph E14.5 kmh E 14.0 mph22.5 kmh 30.26 in1024.7 mb 0.00 in0.0 mm 0.00 in0.0 mm 0.00 in0.0 mm
03:55 AM 39.0°F3.9°C 35.2°F1.8°C 86% 11.3 mph E18.2 kmh E 14.0 mph22.5 kmh 30.26 in1024.7 mb 0.00 in0.0 mm 0.00 in0.0 mm 0.00 in0.0 mm
03:54 AM 38.9°F3.8°C 35.1°F1.7°C 86% 10.3 mph E16.6 kmh E 14.0 mph22.5 kmh 30.27 in1025.1 mb 0.00 in0.0 mm 0.00 in0.0 mm 0.00 in0.0 mm
03:53 AM 38.9°F3.8°C 35.1°F1.7°C 86% 11.3 mph E18.2 kmh E 17.0 mph27.4 kmh 30.27 in1025.1 mb 0.00 in0.0 mm 0.00 in0.0 mm 0.00 in0.0 mm
03:52 AM 38.9°F3.8°C 35.1°F1.7°C 86% 11.3 mph E18.2 kmh E 17.0 mph27.4 kmh 30.27 in1025.1 mb 0.00 in0.0 mm 0.00 in0.0 mm 0.00 in0.0 mm
03:51 AM 38.9°F3.8°C 35.1°F1.7°C 86% 13.3 mph ENE21.4 kmh ENE 17.0 mph27.4 kmh 30.27 in1025.1 mb 0.00 in0.0 mm 0.00 in0.0 mm 0.00 in0.0 mm
03:50 AM 38.9°F3.8°C 35.1°F1.7°C 86% 12.0 mph E19.3 kmh E 18.0 mph29.0 kmh 30.27 in1025.1 mb 0.00 in0.0 mm 0.00 in0.0 mm 0.00 in0.0 mm
03:49 AM 38.8°F3.8°C 35.0°F1.7°C 86% 11.9 mph E19.2 kmh E 18.0 mph29.0 kmh 30.27 in1025.1 mb 0.00 in0.0 mm 0.00 in0.0 mm 0.00 in0.0 mm
03:48 AM 38.9°F3.8°C 34.8°F1.6°C 85% 12.7 mph ENE20.4 kmh ENE 17.0 mph27.4 kmh 30.27 in1025.1 mb 0.00 in0.0 mm 0.00 in0.0 mm 0.00 in0.0 mm
03:47 AM 38.8°F3.8°C 34.7°F1.5°C 85% 8.8 mph ENE14.2 kmh ENE 14.0 mph22.5 kmh 30.26 in1024.7 mb 0.00 in0.0 mm 0.00 in0.0 mm 0.00 in0.0 mm
03:46 AM 38.9°F3.8°C 34.8°F1.6°C 85% 10.5 mph E16.9 kmh E 13.0 mph20.9 kmh 30.27 in1025.1 mb 0.00 in0.0 mm 0.00 in0.0 mm 0.00 in0.0 mm
03:45 AM 38.9°F3.8°C 34.8°F1.6°C 85% 10.1 mph ENE16.3 kmh ENE 14.0 mph22.5 kmh 30.27 in1025.1 mb 0.00 in0.0 mm 0.00 in0.0 mm 0.00 in0.0 mm
03:44 AM 38.8°F3.8°C 34.7°F1.5°C 85% 10.7 mph E17.2 kmh E 14.0 mph22.5 kmh 30.27 in1025.1 mb 0.00 in0.0 mm 0.00 in0.0 mm 0.00 in0.0 mm
03:43 AM 38.9°F3.8°C 34.8°F1.6°C 85% 9.0 mph ENE14.5 kmh ENE 17.0 mph27.4 kmh 30.26 in1024.7 mb 0.00 in0.0 mm 0.00 in0.0 mm 0.00 in0.0 mm
03:42 AM 38.9°F3.8°C 34.8°F1.6°C 85% 11.4 mph E18.3 kmh E 17.0 mph27.4 kmh 30.26 in1024.7 mb 0.00 in0.0 mm 0.00 in0.0 mm 0.00 in0.0 mm
03:41 AM 38.8°F3.8°C 34.7°F1.5°C 85% 10.3 mph E16.6 kmh E 17.0 mph27.4 kmh 30.27 in1025.1 mb 0.00 in0.0 mm 0.00 in0.0 mm 0.00 in0.0 mm
03:40 AM 38.9°F3.8°C 34.8°F1.6°C 85% 11.4 mph E18.3 kmh E 17.0 mph27.4 kmh 30.27 in1025.1 mb 0.00 in0.0 mm 0.00 in0.0 mm 0.00 in0.0 mm
03:39 AM 38.9°F3.8°C 34.8°F1.6°C 85% 10.1 mph E16.3 kmh E 15.0 mph24.1 kmh 30.27 in1025.1 mb 0.00 in0.0 mm 0.00 in0.0 mm 0.00 in0.0 mm
03:38 AM 38.9°F3.8°C 34.8°F1.6°C 85% 11.4 mph ENE18.3 kmh ENE 15.0 mph24.1 kmh 30.27 in1025.1 mb 0.00 in0.0 mm 0.00 in0.0 mm 0.00 in0.0 mm
03:37 AM 38.9°F3.8°C 34.8°F1.6°C 85% 9.7 mph ENE15.6 kmh ENE 13.0 mph20.9 kmh 30.27 in1025.1 mb 0.00 in0.0 mm 0.00 in0.0 mm 0.00 in0.0 mm
03:36 AM 38.9°F3.8°C 34.8°F1.6°C 85% 8.5 mph ENE13.7 kmh ENE 14.0 mph22.5 kmh 30.27 in1025.1 mb 0.00 in0.0 mm 0.00 in0.0 mm 0.00 in0.0 mm
03:35 AM 38.9°F3.8°C 34.8°F1.6°C 85% 11.5 mph E18.5 kmh E 15.0 mph24.1 kmh 30.27 in1025.1 mb 0.00 in0.0 mm 0.00 in0.0 mm 0.00 in0.0 mm
03:34 AM 38.9°F3.8°C 34.8°F1.6°C 85% 11.1 mph E17.9 kmh E 16.0 mph25.7 kmh 30.27 in1025.1 mb 0.00 in0.0 mm 0.00 in0.0 mm 0.00 in0.0 mm
03:33 AM 38.9°F3.8°C 34.8°F1.6°C 85% 12.5 mph ENE20.1 kmh ENE 16.0 mph25.7 kmh 30.27 in1025.1 mb 0.00 in0.0 mm 0.00 in0.0 mm 0.00 in0.0 mm
03:32 AM 38.9°F3.8°C 34.8°F1.6°C 85% 7.5 mph ENE12.1 kmh ENE 12.0 mph19.3 kmh 30.27 in1025.1 mb 0.00 in0.0 mm 0.00 in0.0 mm 0.00 in0.0 mm
03:31 AM 38.9°F3.8°C 34.8°F1.6°C 85% 10.0 mph E16.1 kmh E 14.0 mph22.5 kmh 30.27 in1025.1 mb 0.00 in0.0 mm 0.00 in0.0 mm 0.00 in0.0 mm
03:30 AM 38.9°F3.8°C 34.8°F1.6°C 85% 11.2 mph E18.0 kmh E 15.0 mph24.1 kmh 30.27 in1025.1 mb 0.00 in0.0 mm 0.00 in0.0 mm 0.00 in0.0 mm
03:29 AM 38.9°F3.8°C 34.8°F1.6°C 85% 12.3 mph ENE19.8 kmh ENE 15.0 mph24.1 kmh 30.27 in1025.1 mb 0.00 in0.0 mm 0.00 in0.0 mm 0.00 in0.0 mm
03:28 AM 38.9°F3.8°C 34.8°F1.6°C 85% 10.2 mph ENE16.4 kmh ENE 16.0 mph25.7 kmh 30.27 in1025.1 mb 0.00 in0.0 mm 0.00 in0.0 mm 0.00 in0.0 mm
03:27 AM 38.9°F3.8°C 34.8°F1.6°C 85% 12.7 mph ENE20.4 kmh ENE 16.0 mph25.7 kmh 30.27 in1025.1 mb 0.00 in0.0 mm 0.00 in0.0 mm 0.00 in0.0 mm
03:26 AM 38.9°F3.8°C 34.8°F1.6°C 85% 10.5 mph ENE16.9 kmh ENE 15.0 mph24.1 kmh 30.27 in1025.1 mb 0.00 in0.0 mm 0.00 in0.0 mm 0.00 in0.0 mm
03:25 AM 38.8°F3.8°C 34.7°F1.5°C 85% 11.4 mph E18.3 kmh E 16.0 mph25.7 kmh 30.27 in1025.1 mb 0.00 in0.0 mm 0.00 in0.0 mm 0.00 in0.0 mm
03:24 AM 38.8°F3.8°C 34.7°F1.5°C 85% 12.1 mph ENE19.5 kmh ENE 17.0 mph27.4 kmh 30.27 in1025.1 mb 0.00 in0.0 mm 0.00 in0.0 mm 0.00 in0.0 mm
03:23 AM 38.8°F3.8°C 34.7°F1.5°C 85% 11.3 mph ENE18.2 kmh ENE 17.0 mph27.4 kmh 30.27 in1025.1 mb 0.00 in0.0 mm 0.00 in0.0 mm 0.00 in0.0 mm
03:22 AM 38.7°F3.7°C 34.6°F1.4°C 85% 8.0 mph E12.9 kmh E 16.0 mph25.7 kmh 30.27 in1025.1 mb 0.00 in0.0 mm 0.00 in0.0 mm 0.00 in0.0 mm
03:21 AM 38.6°F3.7°C 34.5°F1.4°C 85% 11.0 mph E17.7 kmh E 16.0 mph25.7 kmh 30.27 in1025.1 mb 0.00 in0.0 mm 0.00 in0.0 mm 0.00 in0.0 mm
03:20 AM 38.6°F3.7°C 34.5°F1.4°C 85% 9.8 mph E15.8 kmh E 14.0 mph22.5 kmh 30.27 in1025.1 mb 0.00 in0.0 mm 0.00 in0.0 mm 0.00 in0.0 mm
03:19 AM 38.5°F3.6°C 34.4°F1.3°C 85% 10.6 mph E17.1 kmh E 16.0 mph25.7 kmh 30.27 in1025.1 mb 0.00 in0.0 mm 0.00 in0.0 mm 0.00 in0.0 mm
03:18 AM 38.6°F3.7°C 34.5°F1.4°C 85% 11.2 mph E18.0 kmh E 16.0 mph25.7 kmh 30.27 in1025.1 mb 0.00 in0.0 mm 0.00 in0.0 mm 0.00 in0.0 mm
03:17 AM 38.5°F3.6°C 34.4°F1.3°C 85% 10.8 mph E17.4 kmh E 16.0 mph25.7 kmh 30.27 in1025.1 mb 0.00 in0.0 mm 0.00 in0.0 mm 0.00 in0.0 mm
03:16 AM 38.4°F3.6°C 34.3°F1.3°C 85% 10.0 mph E16.1 kmh E 15.0 mph24.1 kmh 30.27 in1025.1 mb 0.00 in0.0 mm 0.00 in0.0 mm 0.00 in0.0 mm
03:15 AM 38.4°F3.6°C 34.6°F1.4°C 86% 12.8 mph E20.6 kmh E 15.0 mph24.1 kmh 30.27 in1025.1 mb 0.00 in0.0 mm 0.00 in0.0 mm 0.00 in0.0 mm
03:14 AM 38.3°F3.5°C 34.2°F1.2°C 85% 10.0 mph E16.1 kmh E 15.0 mph24.1 kmh 30.27 in1025.1 mb 0.00 in0.0 mm 0.00 in0.0 mm 0.00 in0.0 mm
03:13 AM 38.3°F3.5°C 34.2°F1.2°C 85% 11.3 mph E18.2 kmh E 15.0 mph24.1 kmh 30.27 in1025.1 mb 0.00 in0.0 mm 0.00 in0.0 mm 0.00 in0.0 mm
03:12 AM 38.3°F3.5°C 34.2°F1.2°C 85% 8.8 mph E14.2 kmh E 13.0 mph20.9 kmh 30.26 in1024.7 mb 0.00 in0.0 mm 0.00 in0.0 mm 0.00 in0.0 mm
03:11 AM 38.3°F3.5°C 34.2°F1.2°C 85% 7.9 mph E12.7 kmh E 13.0 mph20.9 kmh 30.26 in1024.7 mb 0.00 in0.0 mm 0.00 in0.0 mm 0.00 in0.0 mm
03:10 AM 38.3°F3.5°C 34.2°F1.2°C 85% 7.7 mph ENE12.4 kmh ENE 13.0 mph20.9 kmh 30.26 in1024.7 mb 0.00 in0.0 mm 0.00 in0.0 mm 0.00 in0.0 mm
03:09 AM 38.3°F3.5°C 34.2°F1.2°C 85% 10.4 mph ENE16.7 kmh ENE 13.0 mph20.9 kmh 30.26 in1024.7 mb 0.00 in0.0 mm 0.00 in0.0 mm 0.00 in0.0 mm
03:08 AM 38.4°F3.6°C 34.3°F1.3°C 85% 10.3 mph ENE16.6 kmh ENE 13.0 mph20.9 kmh 30.27 in1025.1 mb 0.00 in0.0 mm 0.00 in0.0 mm 0.00 in0.0 mm
03:07 AM 38.4°F3.6°C 34.3°F1.3°C 85% 9.0 mph ENE14.5 kmh ENE 12.0 mph19.3 kmh 30.26 in1024.7 mb 0.00 in0.0 mm 0.00 in0.0 mm 0.00 in0.0 mm
03:06 AM 38.3°F3.5°C 34.2°F1.2°C 85% 8.7 mph ENE14.0 kmh ENE 12.0 mph19.3 kmh 30.27 in1025.1 mb 0.00 in0.0 mm 0.00 in0.0 mm 0.00 in0.0 mm
03:05 AM 38.4°F3.6°C 34.3°F1.3°C 85% 9.2 mph ENE14.8 kmh ENE 12.0 mph19.3 kmh 30.27 in1025.1 mb 0.00 in0.0 mm 0.00 in0.0 mm 0.00 in0.0 mm
03:04 AM 38.4°F3.6°C 34.3°F1.3°C 85% 8.3 mph ENE13.4 kmh ENE 13.0 mph20.9 kmh 30.27 in1025.1 mb 0.00 in0.0 mm 0.00 in0.0 mm 0.00 in0.0 mm
03:03 AM 38.4°F3.6°C 34.3°F1.3°C 85% 8.5 mph E13.7 kmh E 13.0 mph20.9 kmh 30.27 in1025.1 mb 0.00 in0.0 mm 0.00 in0.0 mm 0.00 in0.0 mm
03:02 AM 38.5°F3.6°C 34.4°F1.3°C 85% 8.7 mph ENE14.0 kmh ENE 12.0 mph19.3 kmh 30.27 in1025.1 mb 0.00 in0.0 mm 0.00 in0.0 mm 0.00 in0.0 mm
03:01 AM 38.4°F3.6°C 34.3°F1.3°C 85% 9.4 mph ENE15.1 kmh ENE 14.0 mph22.5 kmh 30.27 in1025.1 mb 0.00 in0.0 mm 0.00 in0.0 mm 0.00 in0.0 mm
03:00 AM 38.4°F3.6°C 34.3°F1.3°C 85% 10.7 mph ENE17.2 kmh ENE 15.0 mph24.1 kmh 30.27 in1025.1 mb 0.00 in0.0 mm 0.00 in0.0 mm 0.00 in0.0 mm
02:59 AM 38.5°F3.6°C 34.4°F1.3°C 85% 12.4 mph ENE20.0 kmh ENE 15.0 mph24.1 kmh 30.27 in1025.1 mb 0.00 in0.0 mm 0.00 in0.0 mm 0.00 in0.0 mm
02:58 AM 38.4°F3.6°C 34.3°F1.3°C 85% 10.3 mph E16.6 kmh E 14.0 mph22.5 kmh 30.27 in1025.1 mb 0.00 in0.0 mm 0.00 in0.0 mm 0.00 in0.0 mm
02:57 AM 38.5°F3.6°C 34.4°F1.3°C 85% 10.2 mph ENE16.4 kmh ENE 14.0 mph22.5 kmh 30.27 in1025.1 mb 0.00 in0.0 mm 0.00 in0.0 mm 0.00 in0.0 mm
02:56 AM 38.5°F3.6°C 34.4°F1.3°C 85% 8.6 mph ENE13.8 kmh ENE 13.0 mph20.9 kmh 30.27 in1025.1 mb 0.00 in0.0 mm 0.00 in0.0 mm 0.00 in0.0 mm
02:55 AM 38.5°F3.6°C 34.4°F1.3°C 85% 9.2 mph ENE14.8 kmh ENE 13.0 mph20.9 kmh 30.27 in1025.1 mb 0.00 in0.0 mm 0.00 in0.0 mm 0.00 in0.0 mm
02:54 AM 38.5°F3.6°C 34.4°F1.3°C 85% 9.6 mph ENE15.4 kmh ENE 12.0 mph19.3 kmh 30.27 in1025.1 mb 0.00 in0.0 mm 0.00 in0.0 mm 0.00 in0.0 mm
02:53 AM 38.6°F3.7°C 34.5°F1.4°C 85% 8.5 mph E13.7 kmh E 12.0 mph19.3 kmh 30.27 in1025.1 mb 0.00 in0.0 mm 0.00 in0.0 mm 0.00 in0.0 mm
02:52 AM 38.5°F3.6°C 34.1°F1.2°C 84% 8.1 mph ENE13.0 kmh ENE 11.0 mph17.7 kmh 30.27 in1025.1 mb 0.00 in0.0 mm 0.00 in0.0 mm 0.00 in0.0 mm
02:51 AM 38.6°F3.7°C 34.2°F1.2°C 84% 8.5 mph E13.7 kmh E 10.0 mph16.1 kmh 30.27 in1025.1 mb 0.00 in0.0 mm 0.00 in0.0 mm 0.00 in0.0 mm
02:50 AM 38.6°F3.7°C 34.2°F1.2°C 84% 5.9 mph ENE9.5 kmh ENE 8.0 mph12.9 kmh 30.27 in1025.1 mb 0.00 in0.0 mm 0.00 in0.0 mm 0.00 in0.0 mm
02:49 AM 38.6°F3.7°C 34.2°F1.2°C 84% 5.6 mph ENE9.0 kmh ENE 12.0 mph19.3 kmh 30.27 in1025.1 mb 0.00 in0.0 mm 0.00 in0.0 mm 0.00 in0.0 mm
02:48 AM 38.6°F3.7°C 34.2°F1.2°C 84% 8.9 mph ENE14.3 kmh ENE 12.0 mph19.3 kmh 30.27 in1025.1 mb 0.00 in0.0 mm 0.00 in0.0 mm 0.00 in0.0 mm
02:47 AM 38.6°F3.7°C 34.2°F1.2°C 84% 9.4 mph ENE15.1 kmh ENE 12.0 mph19.3 kmh 30.27 in1025.1 mb 0.00 in0.0 mm 0.00 in0.0 mm 0.00 in0.0 mm
02:46 AM 38.7°F3.7°C 34.3°F1.3°C 84% 8.8 mph E14.2 kmh E 11.0 mph17.7 kmh 30.27 in1025.1 mb 0.00 in0.0 mm 0.00 in0.0 mm 0.00 in0.0 mm
02:45 AM 38.7°F3.7°C 34.3°F1.3°C 84% 8.4 mph E13.5 kmh E 15.0 mph24.1 kmh 30.27 in1025.1 mb 0.00 in0.0 mm 0.00 in0.0 mm 0.00 in0.0 mm
02:44 AM 38.7°F3.7°C 34.3°F1.3°C 84% 11.8 mph ENE19.0 kmh ENE 15.0 mph24.1 kmh 30.27 in1025.1 mb 0.00 in0.0 mm 0.00 in0.0 mm 0.00 in0.0 mm
02:43 AM 38.8°F3.8°C 34.4°F1.3°C 84% 10.5 mph ENE16.9 kmh ENE 15.0 mph24.1 kmh 30.27 in1025.1 mb 0.00 in0.0 mm 0.00 in0.0 mm 0.00 in0.0 mm
02:42 AM 38.8°F3.8°C 34.4°F1.3°C 84% 10.2 mph ENE16.4 kmh ENE 15.0 mph24.1 kmh 30.27 in1025.1 mb 0.00 in0.0 mm 0.00 in0.0 mm 0.00 in0.0 mm
02:41 AM 38.8°F3.8°C 34.4°F1.3°C 84% 11.0 mph E17.7 kmh E 15.0 mph24.1 kmh 30.27 in1025.1 mb 0.00 in0.0 mm 0.00 in0.0 mm 0.00 in0.0 mm
02:40 AM 38.8°F3.8°C 34.4°F1.3°C 84% 11.6 mph E18.7 kmh E 19.0 mph30.6 kmh 30.27 in1025.1 mb 0.00 in0.0 mm 0.00 in0.0 mm 0.00 in0.0 mm
02:39 AM 38.8°F3.8°C 34.4°F1.3°C 84% 14.7 mph E23.7 kmh E 19.0 mph30.6 kmh 30.26 in1024.7 mb 0.00 in0.0 mm 0.00 in0.0 mm 0.00 in0.0 mm
02:38 AM 38.8°F3.8°C 34.4°F1.3°C 84% 12.6 mph ENE20.3 kmh ENE 17.0 mph27.4 kmh 30.27 in1025.1 mb 0.00 in0.0 mm 0.00 in0.0 mm 0.00 in0.0 mm
02:37 AM 38.9°F3.8°C 34.5°F1.4°C 84% 8.4 mph ENE13.5 kmh ENE 12.0 mph19.3 kmh 30.27 in1025.1 mb 0.00 in0.0 mm 0.00 in0.0 mm 0.00 in0.0 mm
02:36 AM 38.9°F3.8°C 34.5°F1.4°C 84% 8.2 mph E13.2 kmh E 12.0 mph19.3 kmh 30.27 in1025.1 mb 0.00 in0.0 mm 0.00 in0.0 mm 0.00 in0.0 mm
02:35 AM 38.9°F3.8°C 34.5°F1.4°C 84% 10.3 mph ENE16.6 kmh ENE 20.0 mph32.2 kmh 30.27 in1025.1 mb 0.00 in0.0 mm 0.00 in0.0 mm 0.00 in0.0 mm
02:34 AM 38.9°F3.8°C 34.5°F1.4°C 84% 13.1 mph E21.1 kmh E 20.0 mph32.2 kmh 30.27 in1025.1 mb 0.00 in0.0 mm 0.00 in0.0 mm 0.00 in0.0 mm
02:33 AM 38.9°F3.8°C 34.5°F1.4°C 84% 11.4 mph E18.3 kmh E 16.0 mph25.7 kmh 30.27 in1025.1 mb 0.00 in0.0 mm 0.00 in0.0 mm 0.00 in0.0 mm
02:32 AM 38.9°F3.8°C 34.5°F1.4°C 84% 12.6 mph E20.3 kmh E 18.0 mph29.0 kmh 30.27 in1025.1 mb 0.00 in0.0 mm 0.00 in0.0 mm 0.00 in0.0 mm
02:31 AM 38.8°F3.8°C 34.4°F1.3°C 84% 13.4 mph E21.6 kmh E 18.0 mph29.0 kmh 30.27 in1025.1 mb 0.00 in0.0 mm 0.00 in0.0 mm 0.00 in0.0 mm
02:30 AM 38.8°F3.8°C 34.4°F1.3°C 84% 11.8 mph E19.0 kmh E 20.0 mph32.2 kmh 30.27 in1025.1 mb 0.00 in0.0 mm 0.00 in0.0 mm 0.00 in0.0 mm
02:29 AM 38.8°F3.8°C 34.4°F1.3°C 84% 17.0 mph E27.4 kmh E 20.0 mph32.2 kmh 30.27 in1025.1 mb 0.00 in0.0 mm 0.00 in0.0 mm 0.00 in0.0 mm
02:28 AM 38.8°F3.8°C 34.4°F1.3°C 84% 12.5 mph E20.1 kmh E 18.0 mph29.0 kmh 30.27 in1025.1 mb 0.00 in0.0 mm 0.00 in0.0 mm 0.00 in0.0 mm
02:27 AM 38.8°F3.8°C 34.4°F1.3°C 84% 13.0 mph E20.9 kmh E 18.0 mph29.0 kmh 30.27 in1025.1 mb 0.00 in0.0 mm 0.00 in0.0 mm 0.00 in0.0 mm
02:26 AM 38.9°F3.8°C 34.5°F1.4°C 84% 11.4 mph E18.3 kmh E 17.0 mph27.4 kmh 30.27 in1025.1 mb 0.00 in0.0 mm 0.00 in0.0 mm 0.00 in0.0 mm
02:25 AM 38.8°F3.8°C 34.4°F1.3°C 84% 13.0 mph E20.9 kmh E 18.0 mph29.0 kmh 30.27 in1025.1 mb 0.00 in0.0 mm 0.00 in0.0 mm 0.00 in0.0 mm
02:24 AM 38.8°F3.8°C 34.4°F1.3°C 84% 14.1 mph E22.7 kmh E 18.0 mph29.0 kmh 30.27 in1025.1 mb 0.00 in0.0 mm 0.00 in0.0 mm 0.00 in0.0 mm
02:23 AM 38.8°F3.8°C 34.4°F1.3°C 84% 10.5 mph E16.9 kmh E 21.0 mph33.8 kmh 30.27 in1025.1 mb 0.00 in0.0 mm 0.00 in0.0 mm 0.00 in0.0 mm
02:22 AM 38.8°F3.8°C 34.4°F1.3°C 84% 17.1 mph E27.5 kmh E 21.0 mph33.8 kmh 30.27 in1025.1 mb 0.00 in0.0 mm 0.00 in0.0 mm 0.00 in0.0 mm
02:21 AM 38.8°F3.8°C 34.4°F1.3°C 84% 13.0 mph E20.9 kmh E 18.0 mph29.0 kmh 30.27 in1025.1 mb 0.00 in0.0 mm 0.00 in0.0 mm 0.00 in0.0 mm
02:20 AM 38.8°F3.8°C 34.4°F1.3°C 84% 15.1 mph E24.3 kmh E 18.0 mph29.0 kmh 30.27 in1025.1 mb 0.00 in0.0 mm 0.00 in0.0 mm 0.00 in0.0 mm
02:19 AM 38.8°F3.8°C 34.4°F1.3°C 84% 13.2 mph E21.2 kmh E 16.0 mph25.7 kmh 30.27 in1025.1 mb 0.00 in0.0 mm 0.00 in0.0 mm 0.00 in0.0 mm
02:18 AM 38.8°F3.8°C 34.4°F1.3°C 84% 10.3 mph E16.6 kmh E 19.0 mph30.6 kmh 30.26 in1024.7 mb 0.00 in0.0 mm 0.00 in0.0 mm 0.00 in0.0 mm
02:17 AM 38.8°F3.8°C 34.4°F1.3°C 84% 12.1 mph E19.5 kmh E 19.0 mph30.6 kmh 30.27 in1025.1 mb 0.00 in0.0 mm 0.00 in0.0 mm 0.00 in0.0 mm
02:16 AM 38.8°F3.8°C 34.4°F1.3°C 84% 10.9 mph E17.5 kmh E 15.0 mph24.1 kmh 30.27 in1025.1 mb 0.00 in0.0 mm 0.00 in0.0 mm 0.00 in0.0 mm
02:15 AM 38.9°F3.8°C 34.5°F1.4°C 84% 11.0 mph E17.7 kmh E 17.0 mph27.4 kmh 30.26 in1024.7 mb 0.00 in0.0 mm 0.00 in0.0 mm 0.00 in0.0 mm
02:14 AM 38.8°F3.8°C 34.4°F1.3°C 84% 12.5 mph E20.1 kmh E 20.0 mph32.2 kmh 30.26 in1024.7 mb 0.00 in0.0 mm 0.00 in0.0 mm 0.00 in0.0 mm
02:13 AM 38.8°F3.8°C 34.4°F1.3°C 84% 17.1 mph E27.5 kmh E 20.0 mph32.2 kmh 30.26 in1024.7 mb 0.00 in0.0 mm 0.00 in0.0 mm 0.00 in0.0 mm
02:12 AM 38.7°F3.7°C 34.3°F1.3°C 84% 14.6 mph E23.5 kmh E 18.0 mph29.0 kmh 30.27 in1025.1 mb 0.00 in0.0 mm 0.00 in0.0 mm 0.00 in0.0 mm
02:11 AM 38.7°F3.7°C 34.3°F1.3°C 84% 13.3 mph E21.4 kmh E 21.0 mph33.8 kmh 30.27 in1025.1 mb 0.00 in0.0 mm 0.00 in0.0 mm 0.00 in0.0 mm
02:10 AM 38.7°F3.7°C 34.3°F1.3°C 84% 12.7 mph E20.4 kmh E 21.0 mph33.8 kmh 30.26 in1024.7 mb 0.00 in0.0 mm 0.00 in0.0 mm 0.00 in0.0 mm
02:09 AM 38.7°F3.7°C 34.3°F1.3°C 84% 11.9 mph E19.2 kmh E 18.0 mph29.0 kmh 30.26 in1024.7 mb 0.00 in0.0 mm 0.00 in0.0 mm 0.00 in0.0 mm
02:08 AM 38.6°F3.7°C 34.2°F1.2°C 84% 14.3 mph E23.0 kmh E 18.0 mph29.0 kmh 30.26 in1024.7 mb 0.00 in0.0 mm 0.00 in0.0 mm 0.00 in0.0 mm
02:07 AM 38.6°F3.7°C 34.2°F1.2°C 84% 13.1 mph E21.1 kmh E 18.0 mph29.0 kmh 30.26 in1024.7 mb 0.00 in0.0 mm 0.00 in0.0 mm 0.00 in0.0 mm
02:06 AM 38.6°F3.7°C 34.2°F1.2°C 84% 12.9 mph E20.8 kmh E 18.0 mph29.0 kmh 30.26 in1024.7 mb 0.00 in0.0 mm 0.00 in0.0 mm 0.00 in0.0 mm
02:05 AM 38.6°F3.7°C 34.2°F1.2°C 84% 11.8 mph E19.0 kmh E 18.0 mph29.0 kmh 30.26 in1024.7 mb 0.00 in0.0 mm 0.00 in0.0 mm 0.00 in0.0 mm
02:04 AM 38.6°F3.7°C 34.2°F1.2°C 84% 13.3 mph E21.4 kmh E 18.0 mph29.0 kmh 30.26 in1024.7 mb 0.00 in0.0 mm 0.00 in0.0 mm 0.00 in0.0 mm
02:03 AM 38.6°F3.7°C 34.2°F1.2°C 84% 11.6 mph E18.7 kmh E 19.0 mph30.6 kmh 30.26 in1024.7 mb 0.00 in0.0 mm 0.00 in0.0 mm 0.00 in0.0 mm
02:02 AM 38.6°F3.7°C 34.2°F1.2°C 84% 13.5 mph E21.7 kmh E 19.0 mph30.6 kmh 30.26 in1024.7 mb 0.00 in0.0 mm 0.00 in0.0 mm 0.00 in0.0 mm
02:01 AM 38.6°F3.7°C 34.2°F1.2°C 84% 12.3 mph E19.8 kmh E 17.0 mph27.4 kmh 30.26 in1024.7 mb 0.00 in0.0 mm 0.00 in0.0 mm 0.00 in0.0 mm
02:00 AM 38.6°F3.7°C 34.2°F1.2°C 84% 11.8 mph E19.0 kmh E 17.0 mph27.4 kmh 30.26 in1024.7 mb 0.00 in0.0 mm 0.00 in0.0 mm 0.00 in0.0 mm
01:59 AM 38.6°F3.7°C 34.2°F1.2°C 84% 10.9 mph E17.5 kmh E 15.0 mph24.1 kmh 30.26 in1024.7 mb 0.00 in0.0 mm 0.00 in0.0 mm 0.00 in0.0 mm
01:58 AM 38.6°F3.7°C 34.2°F1.2°C 84% 9.5 mph E15.3 kmh E 14.0 mph22.5 kmh 30.26 in1024.7 mb 0.00 in0.0 mm 0.00 in0.0 mm 0.00 in0.0 mm
01:57 AM 38.6°F3.7°C 34.2°F1.2°C 84% 11.2 mph E18.0 kmh E 15.0 mph24.1 kmh 30.26 in1024.7 mb 0.00 in0.0 mm 0.00 in0.0 mm 0.00 in0.0 mm
01:56 AM 38.6°F3.7°C 34.2°F1.2°C 84% 12.3 mph E19.8 kmh E 17.0 mph27.4 kmh 30.26 in1024.7 mb 0.00 in0.0 mm 0.00 in0.0 mm 0.00 in0.0 mm
01:55 AM 38.7°F3.7°C 34.3°F1.3°C 84% 12.0 mph E19.3 kmh E 17.0 mph27.4 kmh 30.26 in1024.7 mb 0.00 in0.0 mm 0.00 in0.0 mm 0.00 in0.0 mm
01:54 AM 38.6°F3.7°C 34.2°F1.2°C 84% 10.5 mph E16.9 kmh E 16.0 mph25.7 kmh 30.26 in1024.7 mb 0.00 in0.0 mm 0.00 in0.0 mm 0.00 in0.0 mm
01:53 AM 38.6°F3.7°C 34.2°F1.2°C 84% 10.5 mph E16.9 kmh E 17.0 mph27.4 kmh 30.26 in1024.7 mb 0.00 in0.0 mm 0.00 in0.0 mm 0.00 in0.0 mm
01:52 AM 38.6°F3.7°C 34.2°F1.2°C 84% 13.3 mph E21.4 kmh E 17.0 mph27.4 kmh 30.26 in1024.7 mb 0.00 in0.0 mm 0.00 in0.0 mm 0.00 in0.0 mm
01:51 AM 38.6°F3.7°C 34.2°F1.2°C 84% 9.4 mph E15.1 kmh E 17.0 mph27.4 kmh 30.26 in1024.7 mb 0.00 in0.0 mm 0.00 in0.0 mm 0.00 in0.0 mm
01:50 AM 38.6°F3.7°C 34.2°F1.2°C 84% 13.2 mph E21.2 kmh E 17.0 mph27.4 kmh 30.26 in1024.7 mb 0.00 in0.0 mm 0.00 in0.0 mm 0.00 in0.0 mm
01:49 AM 38.6°F3.7°C 34.2°F1.2°C 84% 9.8 mph E15.8 kmh E 18.0 mph29.0 kmh 30.26 in1024.7 mb 0.00 in0.0 mm 0.00 in0.0 mm 0.00 in0.0 mm
01:48 AM 38.7°F3.7°C 34.3°F1.3°C 84% 12.7 mph E20.4 kmh E 18.0 mph29.0 kmh 30.26 in1024.7 mb 0.00 in0.0 mm 0.00 in0.0 mm 0.00 in0.0 mm
01:47 AM 38.7°F3.7°C 34.3°F1.3°C 84% 10.8 mph E17.4 kmh E 15.0 mph24.1 kmh 30.26 in1024.7 mb 0.00 in0.0 mm 0.00 in0.0 mm 0.00 in0.0 mm
01:46 AM 38.7°F3.7°C 34.3°F1.3°C 84% 9.2 mph E14.8 kmh E 14.0 mph22.5 kmh 30.26 in1024.7 mb 0.00 in0.0 mm 0.00 in0.0 mm 0.00 in0.0 mm
01:45 AM 38.8°F3.8°C 34.4°F1.3°C 84% 10.3 mph E16.6 kmh E 14.0 mph22.5 kmh 30.26 in1024.7 mb 0.00 in0.0 mm 0.00 in0.0 mm 0.00 in0.0 mm
01:44 AM 38.8°F3.8°C 34.4°F1.3°C 84% 9.3 mph E15.0 kmh E 18.0 mph29.0 kmh 30.26 in1024.7 mb 0.00 in0.0 mm 0.00 in0.0 mm 0.00 in0.0 mm
01:43 AM 38.8°F3.8°C 34.4°F1.3°C 84% 13.3 mph E21.4 kmh E 18.0 mph29.0 kmh 30.26 in1024.7 mb 0.00 in0.0 mm 0.00 in0.0 mm 0.00 in0.0 mm
01:42 AM 38.8°F3.8°C 34.4°F1.3°C 84% 12.8 mph ENE20.6 kmh ENE 18.0 mph29.0 kmh 30.26 in1024.7 mb 0.00 in0.0 mm 0.00 in0.0 mm 0.00 in0.0 mm
01:41 AM 38.8°F3.8°C 34.4°F1.3°C 84% 13.1 mph E21.1 kmh E 19.0 mph30.6 kmh 30.26 in1024.7 mb 0.00 in0.0 mm 0.00 in0.0 mm 0.00 in0.0 mm
01:40 AM 38.7°F3.7°C 34.3°F1.3°C 84% 14.1 mph E22.7 kmh E 19.0 mph30.6 kmh 30.26 in1024.7 mb 0.00 in0.0 mm 0.00 in0.0 mm 0.00 in0.0 mm
01:39 AM 38.8°F3.8°C 34.4°F1.3°C 84% 11.0 mph E17.7 kmh E 21.0 mph33.8 kmh 30.26 in1024.7 mb 0.00 in0.0 mm 0.00 in0.0 mm 0.00 in0.0 mm
01:38 AM 38.6°F3.7°C 34.2°F1.2°C 84% 13.0 mph E20.9 kmh E 21.0 mph33.8 kmh 30.26 in1024.7 mb 0.00 in0.0 mm 0.00 in0.0 mm 0.00 in0.0 mm
01:37 AM 38.6°F3.7°C 34.2°F1.2°C 84% 12.4 mph E20.0 kmh E 17.0 mph27.4 kmh 30.26 in1024.7 mb 0.00 in0.0 mm 0.00 in0.0 mm 0.00 in0.0 mm
01:36 AM 38.6°F3.7°C 34.2°F1.2°C 84% 11.6 mph E18.7 kmh E 17.0 mph27.4 kmh 30.26 in1024.7 mb 0.00 in0.0 mm 0.00 in0.0 mm 0.00 in0.0 mm
01:35 AM 38.6°F3.7°C 34.2°F1.2°C 84% 11.5 mph E18.5 kmh E 15.0 mph24.1 kmh 30.26 in1024.7 mb 0.00 in0.0 mm 0.00 in0.0 mm 0.00 in0.0 mm
01:34 AM 38.6°F3.7°C 34.2°F1.2°C 84% 11.3 mph E18.2 kmh E 15.0 mph24.1 kmh 30.26 in1024.7 mb 0.00 in0.0 mm 0.00 in0.0 mm 0.00 in0.0 mm
01:33 AM 38.5°F3.6°C 34.1°F1.2°C 84% 11.1 mph E17.9 kmh E 16.0 mph25.7 kmh 30.26 in1024.7 mb 0.00 in0.0 mm 0.00 in0.0 mm 0.00 in0.0 mm
01:32 AM 38.5°F3.6°C 34.1°F1.2°C 84% 12.5 mph E20.1 kmh E 17.0 mph27.4 kmh 30.26 in1024.7 mb 0.00 in0.0 mm 0.00 in0.0 mm 0.00 in0.0 mm
01:31 AM 38.5°F3.6°C 34.1°F1.2°C 84% 14.1 mph ENE22.7 kmh ENE 17.0 mph27.4 kmh 30.26 in1024.7 mb 0.00 in0.0 mm 0.00 in0.0 mm 0.00 in0.0 mm
01:30 AM 38.5°F3.6°C 34.1°F1.2°C 84% 9.0 mph E14.5 kmh E 15.0 mph24.1 kmh 30.26 in1024.7 mb 0.00 in0.0 mm 0.00 in0.0 mm 0.00 in0.0 mm
01:29 AM 38.5°F3.6°C 34.1°F1.2°C 84% 10.2 mph E16.4 kmh E 13.0 mph20.9 kmh 30.26 in1024.7 mb 0.00 in0.0 mm 0.00 in0.0 mm 0.00 in0.0 mm
01:28 AM 38.6°F3.7°C 34.2°F1.2°C 84% 10.0 mph E16.1 kmh E 15.0 mph24.1 kmh 30.26 in1024.7 mb 0.00 in0.0 mm 0.00 in0.0 mm 0.00 in0.0 mm
01:27 AM 38.5°F3.6°C 34.1°F1.2°C 84% 12.4 mph E20.0 kmh E 16.0 mph25.7 kmh 30.26 in1024.7 mb 0.00 in0.0 mm 0.00 in0.0 mm 0.00 in0.0 mm
01:26 AM 38.4°F3.6°C 34.0°F1.1°C 84% 12.3 mph E19.8 kmh E 16.0 mph25.7 kmh 30.26 in1024.7 mb 0.00 in0.0 mm 0.00 in0.0 mm 0.00 in0.0 mm
01:25 AM 38.5°F3.6°C 34.1°F1.2°C 84% 10.6 mph E17.1 kmh E 16.0 mph25.7 kmh 30.26 in1024.7 mb 0.00 in0.0 mm 0.00 in0.0 mm 0.00 in0.0 mm
01:24 AM 38.4°F3.6°C 34.0°F1.1°C 84% 12.0 mph E19.3 kmh E 16.0 mph25.7 kmh 30.26 in1024.7 mb 0.00 in0.0 mm 0.00 in0.0 mm 0.00 in0.0 mm
01:23 AM 38.4°F3.6°C 34.0°F1.1°C 84% 10.9 mph E17.5 kmh E 16.0 mph25.7 kmh 30.26 in1024.7 mb 0.00 in0.0 mm 0.00 in0.0 mm 0.00 in0.0 mm
01:22 AM 38.4°F3.6°C 34.0°F1.1°C 84% 13.7 mph E22.0 kmh E 16.0 mph25.7 kmh 30.26 in1024.7 mb 0.00 in0.0 mm 0.00 in0.0 mm 0.00 in0.0 mm
01:21 AM 38.4°F3.6°C 34.0°F1.1°C 84% 13.1 mph E21.1 kmh E 17.0 mph27.4 kmh 30.26 in1024.7 mb 0.00 in0.0 mm 0.00 in0.0 mm 0.00 in0.0 mm
01:20 AM 38.4°F3.6°C 34.0°F1.1°C 84% 13.1 mph E21.1 kmh E 17.0 mph27.4 kmh 30.26 in1024.7 mb 0.00 in0.0 mm 0.00 in0.0 mm 0.00 in0.0 mm
01:19 AM 38.4°F3.6°C 34.0°F1.1°C 84% 12.0 mph E19.3 kmh E 20.0 mph32.2 kmh 30.26 in1024.7 mb 0.00 in0.0 mm 0.00 in0.0 mm 0.00 in0.0 mm
01:18 AM 38.4°F3.6°C 34.0°F1.1°C 84% 15.1 mph E24.3 kmh E 20.0 mph32.2 kmh 30.26 in1024.7 mb 0.00 in0.0 mm 0.00 in0.0 mm 0.00 in0.0 mm
01:17 AM 38.4°F3.6°C 34.0°F1.1°C 84% 13.1 mph E21.1 kmh E 17.0 mph27.4 kmh 30.26 in1024.7 mb 0.00 in0.0 mm 0.00 in0.0 mm 0.00 in0.0 mm
01:16 AM 38.4°F3.6°C 34.0°F1.1°C 84% 10.6 mph E17.1 kmh E 15.0 mph24.1 kmh 30.26 in1024.7 mb 0.00 in0.0 mm 0.00 in0.0 mm 0.00 in0.0 mm
01:15 AM 38.4°F3.6°C 34.0°F1.1°C 84% 10.4 mph E16.7 kmh E 16.0 mph25.7 kmh 30.26 in1024.7 mb 0.00 in0.0 mm 0.00 in0.0 mm 0.00 in0.0 mm
01:14 AM 38.5°F3.6°C 34.1°F1.2°C 84% 12.0 mph E19.3 kmh E 17.0 mph27.4 kmh 30.26 in1024.7 mb 0.00 in0.0 mm 0.00 in0.0 mm 0.00 in0.0 mm
01:13 AM 38.4°F3.6°C 34.0°F1.1°C 84% 13.1 mph E21.1 kmh E 17.0 mph27.4 kmh 30.26 in1024.7 mb 0.00 in0.0 mm 0.00 in0.0 mm 0.00 in0.0 mm
01:12 AM 38.5°F3.6°C 34.1°F1.2°C 84% 12.3 mph E19.8 kmh E 16.0 mph25.7 kmh 30.26 in1024.7 mb 0.00 in0.0 mm 0.00 in0.0 mm 0.00 in0.0 mm
01:11 AM 38.5°F3.6°C 34.1°F1.2°C 84% 11.4 mph E18.3 kmh E 17.0 mph27.4 kmh 30.26 in1024.7 mb 0.00 in0.0 mm 0.00 in0.0 mm 0.00 in0.0 mm
01:10 AM 38.4°F3.6°C 34.0°F1.1°C 84% 13.1 mph E21.1 kmh E 21.0 mph33.8 kmh 30.26 in1024.7 mb 0.00 in0.0 mm 0.00 in0.0 mm 0.00 in0.0 mm
01:09 AM 38.4°F3.6°C 34.0°F1.1°C 84% 14.2 mph E22.9 kmh E 21.0 mph33.8 kmh 30.26 in1024.7 mb 0.00 in0.0 mm 0.00 in0.0 mm 0.00 in0.0 mm
01:08 AM 38.3°F3.5°C 33.9°F1.1°C 84% 14.0 mph E22.5 kmh E 20.0 mph32.2 kmh 30.26 in1024.7 mb 0.00 in0.0 mm 0.00 in0.0 mm 0.00 in0.0 mm
01:07 AM 38.4°F3.6°C 34.0°F1.1°C 84% 11.8 mph E19.0 kmh E 16.0 mph25.7 kmh 30.26 in1024.7 mb 0.00 in0.0 mm 0.00 in0.0 mm 0.00 in0.0 mm
01:06 AM 38.3°F3.5°C 33.9°F1.1°C 84% 12.5 mph E20.1 kmh E 17.0 mph27.4 kmh 30.26 in1024.7 mb 0.00 in0.0 mm 0.00 in0.0 mm 0.00 in0.0 mm
01:05 AM 38.3°F3.5°C 34.2°F1.2°C 85% 12.6 mph E20.3 kmh E 18.0 mph29.0 kmh 30.26 in1024.7 mb 0.00 in0.0 mm 0.00 in0.0 mm 0.00 in0.0 mm
01:04 AM 38.3°F3.5°C 33.9°F1.1°C 84% 12.3 mph E19.8 kmh E 16.0 mph25.7 kmh 30.26 in1024.7 mb 0.00 in0.0 mm 0.00 in0.0 mm 0.00 in0.0 mm
01:03 AM 38.2°F3.4°C 34.1°F1.2°C 85% 12.7 mph E20.4 kmh E 19.0 mph30.6 kmh 30.26 in1024.7 mb 0.00 in0.0 mm 0.00 in0.0 mm 0.00 in0.0 mm
01:02 AM 38.3°F3.5°C 33.9°F1.1°C 84% 14.4 mph E23.2 kmh E 19.0 mph30.6 kmh 30.26 in1024.7 mb 0.00 in0.0 mm 0.00 in0.0 mm 0.00 in0.0 mm
01:01 AM 38.3°F3.5°C 33.9°F1.1°C 84% 10.2 mph E16.4 kmh E 18.0 mph29.0 kmh 30.26 in1024.7 mb 0.00 in0.0 mm 0.00 in0.0 mm 0.00 in0.0 mm
01:00 AM 38.2°F3.4°C 33.8°F1.0°C 84% 12.5 mph E20.1 kmh E 18.0 mph29.0 kmh 30.26 in1024.7 mb 0.00 in0.0 mm 0.00 in0.0 mm 0.00 in0.0 mm
12:59 AM 38.3°F3.5°C 33.9°F1.1°C 84% 11.3 mph E18.2 kmh E 16.0 mph25.7 kmh 30.26 in1024.7 mb 0.00 in0.0 mm 0.00 in0.0 mm 0.00 in0.0 mm
12:58 AM 38.3°F3.5°C 33.9°F1.1°C 84% 10.8 mph E17.4 kmh E 14.0 mph22.5 kmh 30.26 in1024.7 mb 0.00 in0.0 mm 0.00 in0.0 mm 0.00 in0.0 mm
12:57 AM 38.3°F3.5°C 33.9°F1.1°C 84% 6.9 mph E11.1 kmh E 13.0 mph20.9 kmh 30.26 in1024.7 mb 0.00 in0.0 mm 0.00 in0.0 mm 0.00 in0.0 mm
12:56 AM 38.3°F3.5°C 33.9°F1.1°C 84% 9.3 mph E15.0 kmh E 14.0 mph22.5 kmh 30.26 in1024.7 mb 0.00 in0.0 mm 0.00 in0.0 mm 0.00 in0.0 mm
12:55 AM 38.4°F3.6°C 34.0°F1.1°C 84% 11.6 mph E18.7 kmh E 16.0 mph25.7 kmh 30.26 in1024.7 mb 0.00 in0.0 mm 0.00 in0.0 mm 0.00 in0.0 mm
12:54 AM 38.3°F3.5°C 33.9°F1.1°C 84% 11.2 mph E18.0 kmh E 16.0 mph25.7 kmh 30.26 in1024.7 mb 0.00 in0.0 mm 0.00 in0.0 mm 0.00 in0.0 mm
12:53 AM 38.4°F3.6°C 34.0°F1.1°C 84% 7.2 mph E11.6 kmh E 15.0 mph24.1 kmh 30.26 in1024.7 mb 0.00 in0.0 mm 0.00 in0.0 mm 0.00 in0.0 mm
12:52 AM 38.5°F3.6°C 34.1°F1.2°C 84% 10.6 mph E17.1 kmh E 17.0 mph27.4 kmh 30.26 in1024.7 mb 0.00 in0.0 mm 0.00 in0.0 mm 0.00 in0.0 mm
12:51 AM 38.4°F3.6°C 34.0°F1.1°C 84% 12.8 mph E20.6 kmh E 17.0 mph27.4 kmh 30.26 in1024.7 mb 0.00 in0.0 mm 0.00 in0.0 mm 0.00 in0.0 mm
12:50 AM 38.4°F3.6°C 34.0°F1.1°C 84% 10.0 mph E16.1 kmh E 16.0 mph25.7 kmh 30.26 in1024.7 mb 0.00 in0.0 mm 0.00 in0.0 mm 0.00 in0.0 mm
12:49 AM 38.4°F3.6°C 34.0°F1.1°C 84% 12.4 mph E20.0 kmh E 16.0 mph25.7 kmh 30.26 in1024.7 mb 0.00 in0.0 mm 0.00 in0.0 mm 0.00 in0.0 mm
12:48 AM 38.4°F3.6°C 34.0°F1.1°C 84% 11.0 mph E17.7 kmh E 16.0 mph25.7 kmh 30.26 in1024.7 mb 0.00 in0.0 mm 0.00 in0.0 mm 0.00 in0.0 mm
12:47 AM 38.4°F3.6°C 34.0°F1.1°C 84% 12.0 mph E19.3 kmh E 16.0 mph25.7 kmh 30.26 in1024.7 mb 0.00 in0.0 mm 0.00 in0.0 mm 0.00 in0.0 mm
12:46 AM 38.4°F3.6°C 34.0°F1.1°C 84% 11.1 mph E17.9 kmh E 16.0 mph25.7 kmh 30.26 in1024.7 mb 0.00 in0.0 mm 0.00 in0.0 mm 0.00 in0.0 mm
12:45 AM 38.5°F3.6°C 34.1°F1.2°C 84% 10.4 mph E16.7 kmh E 13.0 mph20.9 kmh 30.27 in1025.1 mb 0.00 in0.0 mm 0.00 in0.0 mm 0.00 in0.0 mm
12:44 AM 38.4°F3.6°C 34.0°F1.1°C 84% 10.5 mph E16.9 kmh E 16.0 mph25.7 kmh 30.26 in1024.7 mb 0.00 in0.0 mm 0.00 in0.0 mm 0.00 in0.0 mm
12:43 AM 38.5°F3.6°C 34.1°F1.2°C 84% 11.1 mph E17.9 kmh E 16.0 mph25.7 kmh 30.27 in1025.1 mb 0.00 in0.0 mm 0.00 in0.0 mm 0.00 in0.0 mm
12:42 AM 38.5°F3.6°C 34.1°F1.2°C 84% 11.2 mph E18.0 kmh E 15.0 mph24.1 kmh 30.27 in1025.1 mb 0.00 in0.0 mm 0.00 in0.0 mm 0.00 in0.0 mm
12:41 AM 38.5°F3.6°C 34.1°F1.2°C 84% 12.6 mph ENE20.3 kmh ENE 15.0 mph24.1 kmh 30.26 in1024.7 mb 0.00 in0.0 mm 0.00 in0.0 mm 0.00 in0.0 mm
12:40 AM 38.5°F3.6°C 34.1°F1.2°C 84% 10.8 mph E17.4 kmh E 15.0 mph24.1 kmh 30.27 in1025.1 mb 0.00 in0.0 mm 0.00 in0.0 mm 0.00 in0.0 mm
12:39 AM 38.6°F3.7°C 34.2°F1.2°C 84% 11.0 mph E17.7 kmh E 19.0 mph30.6 kmh 30.27 in1025.1 mb 0.00 in0.0 mm 0.00 in0.0 mm 0.00 in0.0 mm
12:38 AM 38.6°F3.7°C 34.2°F1.2°C 84% 12.6 mph E20.3 kmh E 19.0 mph30.6 kmh 30.27 in1025.1 mb 0.00 in0.0 mm 0.00 in0.0 mm 0.00 in0.0 mm
12:37 AM 38.5°F3.6°C 34.1°F1.2°C 84% 13.6 mph E21.9 kmh E 18.0 mph29.0 kmh 30.27 in1025.1 mb 0.00 in0.0 mm 0.00 in0.0 mm 0.00 in0.0 mm
12:36 AM 38.6°F3.7°C 34.2°F1.2°C 84% 11.5 mph E18.5 kmh E 15.0 mph24.1 kmh 30.27 in1025.1 mb 0.00 in0.0 mm 0.00 in0.0 mm 0.00 in0.0 mm
12:35 AM 38.6°F3.7°C 34.2°F1.2°C 84% 10.6 mph E17.1 kmh E 16.0 mph25.7 kmh 30.27 in1025.1 mb 0.00 in0.0 mm 0.00 in0.0 mm 0.00 in0.0 mm
12:34 AM 38.6°F3.7°C 34.2°F1.2°C 84% 12.0 mph E19.3 kmh E 16.0 mph25.7 kmh 30.27 in1025.1 mb 0.00 in0.0 mm 0.00 in0.0 mm 0.00 in0.0 mm
12:33 AM 38.6°F3.7°C 34.2°F1.2°C 84% 13.4 mph E21.6 kmh E 19.0 mph30.6 kmh 30.27 in1025.1 mb 0.00 in0.0 mm 0.00 in0.0 mm 0.00 in0.0 mm
12:32 AM 38.6°F3.7°C 34.2°F1.2°C 84% 12.9 mph E20.8 kmh E 19.0 mph30.6 kmh 30.27 in1025.1 mb 0.00 in0.0 mm 0.00 in0.0 mm 0.00 in0.0 mm
12:31 AM 38.6°F3.7°C 34.2°F1.2°C 84% 9.6 mph E15.4 kmh E 15.0 mph24.1 kmh 30.27 in1025.1 mb 0.00 in0.0 mm 0.00 in0.0 mm 0.00 in0.0 mm
12:30 AM 38.6°F3.7°C 34.2°F1.2°C 84% 11.1 mph E17.9 kmh E 17.0 mph27.4 kmh 30.27 in1025.1 mb 0.00 in0.0 mm 0.00 in0.0 mm 0.00 in0.0 mm
12:29 AM 38.6°F3.7°C 34.2°F1.2°C 84% 14.0 mph E22.5 kmh E 21.0 mph33.8 kmh 30.27 in1025.1 mb 0.00 in0.0 mm 0.00 in0.0 mm 0.00 in0.0 mm
12:28 AM 38.6°F3.7°C 34.2°F1.2°C 84% 16.1 mph E25.9 kmh E 21.0 mph33.8 kmh 30.27 in1025.1 mb 0.00 in0.0 mm 0.00 in0.0 mm 0.00 in0.0 mm
12:27 AM 38.6°F3.7°C 34.2°F1.2°C 84% 11.6 mph E18.7 kmh E 15.0 mph24.1 kmh 30.27 in1025.1 mb 0.00 in0.0 mm 0.00 in0.0 mm 0.00 in0.0 mm
12:26 AM 38.7°F3.7°C 34.3°F1.3°C 84% 11.0 mph E17.7 kmh E 15.0 mph24.1 kmh 30.26 in1024.7 mb 0.00 in0.0 mm 0.00 in0.0 mm 0.00 in0.0 mm
12:25 AM 38.7°F3.7°C 34.3°F1.3°C 84% 11.3 mph E18.2 kmh E 15.0 mph24.1 kmh 30.26 in1024.7 mb 0.00 in0.0 mm 0.00 in0.0 mm 0.00 in0.0 mm
12:24 AM 38.7°F3.7°C 34.3°F1.3°C 84% 10.7 mph E17.2 kmh E 15.0 mph24.1 kmh 30.27 in1025.1 mb 0.00 in0.0 mm 0.00 in0.0 mm 0.00 in0.0 mm
12:23 AM 38.8°F3.8°C 34.4°F1.3°C 84% 9.9 mph E15.9 kmh E 17.0 mph27.4 kmh 30.27 in1025.1 mb 0.00 in0.0 mm 0.00 in0.0 mm 0.00 in0.0 mm
12:22 AM 38.7°F3.7°C 34.3°F1.3°C 84% 11.6 mph E18.7 kmh E 19.0 mph30.6 kmh 30.27 in1025.1 mb 0.00 in0.0 mm 0.00 in0.0 mm 0.00 in0.0 mm
12:21 AM 38.7°F3.7°C 34.3°F1.3°C 84% 14.0 mph E22.5 kmh E 19.0 mph30.6 kmh 30.27 in1025.1 mb 0.00 in0.0 mm 0.00 in0.0 mm 0.00 in0.0 mm
12:20 AM 38.8°F3.8°C 34.4°F1.3°C 84% 14.3 mph E23.0 kmh E 19.0 mph30.6 kmh 30.26 in1024.7 mb 0.00 in0.0 mm 0.00 in0.0 mm 0.00 in0.0 mm
12:19 AM 38.8°F3.8°C 34.4°F1.3°C 84% 14.9 mph E24.0 kmh E 19.0 mph30.6 kmh 30.26 in1024.7 mb 0.00 in0.0 mm 0.00 in0.0 mm 0.00 in0.0 mm
12:18 AM 38.8°F3.8°C 34.4°F1.3°C 84% 10.7 mph E17.2 kmh E 18.0 mph29.0 kmh 30.27 in1025.1 mb 0.00 in0.0 mm 0.00 in0.0 mm 0.00 in0.0 mm
12:17 AM 38.9°F3.8°C 34.5°F1.4°C 84% 11.8 mph E19.0 kmh E 16.0 mph25.7 kmh 30.26 in1024.7 mb 0.00 in0.0 mm 0.00 in0.0 mm 0.00 in0.0 mm
12:16 AM 38.8°F3.8°C 34.4°F1.3°C 84% 13.6 mph E21.9 kmh E 19.0 mph30.6 kmh 30.26 in1024.7 mb 0.00 in0.0 mm 0.00 in0.0 mm 0.00 in0.0 mm
12:15 AM 38.8°F3.8°C 34.4°F1.3°C 84% 14.2 mph E22.9 kmh E 24.0 mph38.6 kmh 30.26 in1024.7 mb 0.00 in0.0 mm 0.00 in0.0 mm 0.00 in0.0 mm
12:14 AM 38.8°F3.8°C 34.4°F1.3°C 84% 15.9 mph E25.6 kmh E 24.0 mph38.6 kmh 30.27 in1025.1 mb 0.00 in0.0 mm 0.00 in0.0 mm 0.00 in0.0 mm
12:13 AM 38.8°F3.8°C 34.4°F1.3°C 84% 13.5 mph E21.7 kmh E 19.0 mph30.6 kmh 30.27 in1025.1 mb 0.00 in0.0 mm 0.00 in0.0 mm 0.00 in0.0 mm
12:12 AM 38.8°F3.8°C 34.4°F1.3°C 84% 14.3 mph E23.0 kmh E 19.0 mph30.6 kmh 30.26 in1024.7 mb 0.00 in0.0 mm 0.00 in0.0 mm 0.00 in0.0 mm
12:11 AM 38.8°F3.8°C 34.4°F1.3°C 84% 13.5 mph ENE21.7 kmh ENE 22.0 mph35.4 kmh 30.26 in1024.7 mb 0.00 in0.0 mm 0.00 in0.0 mm 0.00 in0.0 mm
12:10 AM 38.8°F3.8°C 34.4°F1.3°C 84% 15.5 mph E24.9 kmh E 22.0 mph35.4 kmh 30.26 in1024.7 mb 0.00 in0.0 mm 0.00 in0.0 mm 0.00 in0.0 mm
12:09 AM 38.8°F3.8°C 34.4°F1.3°C 84% 10.8 mph E17.4 kmh E 19.0 mph30.6 kmh 30.26 in1024.7 mb 0.00 in0.0 mm 0.00 in0.0 mm 0.00 in0.0 mm
12:08 AM 38.8°F3.8°C 34.4°F1.3°C 84% 14.4 mph E23.2 kmh E 19.0 mph30.6 kmh 30.27 in1025.1 mb 0.00 in0.0 mm 0.00 in0.0 mm 0.00 in0.0 mm
12:07 AM 38.7°F3.7°C 34.3°F1.3°C 84% 12.4 mph E20.0 kmh E 19.0 mph30.6 kmh 30.26 in1024.7 mb 0.00 in0.0 mm 0.00 in0.0 mm 0.00 in0.0 mm
12:06 AM 38.8°F3.8°C 34.4°F1.3°C 84% 14.3 mph E23.0 kmh E 18.0 mph29.0 kmh 30.26 in1024.7 mb 0.00 in0.0 mm 0.00 in0.0 mm 0.00 in0.0 mm
12:05 AM 38.8°F3.8°C 34.4°F1.3°C 84% 13.3 mph E21.4 kmh E 19.0 mph30.6 kmh 30.27 in1025.1 mb 0.00 in0.0 mm 0.00 in0.0 mm 0.00 in0.0 mm
12:04 AM 38.8°F3.8°C 34.4°F1.3°C 84% 14.1 mph E22.7 kmh E 19.0 mph30.6 kmh 30.26 in1024.7 mb 0.00 in0.0 mm 0.00 in0.0 mm 0.00 in0.0 mm
12:03 AM 38.7°F3.7°C 34.6°F1.4°C 85% 11.3 mph E18.2 kmh E 15.0 mph24.1 kmh 30.26 in1024.7 mb 0.00 in0.0 mm 0.00 in0.0 mm 0.00 in0.0 mm
12:02 AM 38.8°F3.8°C 34.7°F1.5°C 85% 9.5 mph E15.3 kmh E 15.0 mph24.1 kmh 30.26 in1024.7 mb 0.00 in0.0 mm 0.00 in0.0 mm 0.00 in0.0 mm
12:01 AM 38.8°F3.8°C 34.7°F1.5°C 85% 8.8 mph E14.2 kmh E 15.0 mph24.1 kmh 30.26 in1024.7 mb 0.00 in0.0 mm 0.00 in0.0 mm 0.00 in0.0 mm
12:00 AM 38.8°F3.8°C 34.7°F1.5°C 85% 11.5 mph E18.5 kmh E 15.0 mph24.1 kmh 30.26 in1024.7 mb 0.00 in0.0 mm 0.00 in0.0 mm 0.05 in1.3 mm